Observation data for Romero 11SSW on 07/16/2019      Previous  Date       Current Mesonet Observations  Soil Data  Daily Summary Page  Observations in Plain Language
KBR1 160500Z 22008KT 26/15 A3004 RMK A01 T02630146  RH  049%=      5-min Rain = 0
KBR1 160501Z 22007KT 26/15 A3004 RMK A01 T02630146  RH  049%=      5-min Rain = 0
KBR1 160502Z 22008KT 26/15 A3004 RMK A01 T02620146  RH  049%=      5-min Rain = 0
KBR1 160503Z 21008KT 26/15 A3004 RMK A01 T02620145  RH  049%=      5-min Rain = 0
KBR1 160504Z 22007KT 26/15 A3004 RMK A01 T02620145  RH  049%=      5-min Rain = 0
KBR1 160505Z 22008KT 26/15 A3004 RMK A01 T02620145  RH  049%=      5-min Rain = 0
KBR1 160506Z 22008KT 26/15 A3005 RMK A01 T02620146  RH  049%=      5-min Rain = 0
KBR1 160507Z 22007KT 26/15 A3005 RMK A01 T02620145  RH  049%=      5-min Rain = 0
KBR1 160508Z 22007KT 26/15 A3005 RMK A01 T02620146  RH  049%=      5-min Rain = 0
KBR1 160509Z 21007KT 26/15 A3005 RMK A01 T02620146  RH  049%=      5-min Rain = 0
KBR1 160510Z 21007KT 26/15 A3005 RMK A01 T02610145  RH  049%=      5-min Rain = 0
KBR1 160511Z 22007KT 26/15 A3005 RMK A01 T02600145  RH  049%=      5-min Rain = 0
KBR1 160512Z 21007KT 26/15 A3005 RMK A01 T02600145  RH  049%=      5-min Rain = 0
KBR1 160513Z 21007KT 26/15 A3005 RMK A01 T02590145  RH  049%=      5-min Rain = 0
KBR1 160514Z 21008KT 26/15 A3005 RMK A01 T02590145  RH  049%=      5-min Rain = 0
KBR1 160515Z 21008KT 26/15 A3005 RMK A01 T02590145  RH  049%=      5-min Rain = 0
KBR1 160516Z 22007KT 26/15 A3005 RMK A01 T02590145  RH  049%=      5-min Rain = 0
KBR1 160517Z 21008KT 26/14 A3005 RMK A01 T02580144  RH  049%=      5-min Rain = 0
KBR1 160518Z 21007KT 26/14 A3005 RMK A01 T02590144  RH  049%=      5-min Rain = 0
KBR1 160519Z 21007KT 26/14 A3005 RMK A01 T02590144  RH  049%=      5-min Rain = 0
KBR1 160520Z 21008KT 26/14 A3005 RMK A01 T02580144  RH  049%=      5-min Rain = 0
KBR1 160521Z 21007KT 26/14 A3005 RMK A01 T02570143  RH  049%=      5-min Rain = 0
KBR1 160522Z 21007KT 26/14 A3005 RMK A01 T02570143  RH  049%=      5-min Rain = 0
KBR1 160523Z 21007KT 26/14 A3005 RMK A01 T02570143  RH  049%=      5-min Rain = 0
KBR1 160524Z 21007KT 26/14 A3005 RMK A01 T02570143  RH  049%=      5-min Rain = 0
KBR1 160525Z 21007KT 26/14 A3005 RMK A01 T02560143  RH  050%=      5-min Rain = 0
KBR1 160526Z 21008KT 26/14 A3005 RMK A01 T02560143  RH  050%=      5-min Rain = 0
KBR1 160527Z 21007KT 26/14 A3005 RMK A01 T02550142  RH  050%=      5-min Rain = 0
KBR1 160528Z 21008KT 26/14 A3005 RMK A01 T02550142  RH  050%=      5-min Rain = 0
KBR1 160529Z 21007KT 26/14 A3005 RMK A01 T02560142  RH  049%=      5-min Rain = 0
KBR1 160530Z 20007KT 26/14 A3004 RMK A01 T02560142  RH  049%=      5-min Rain = 0
KBR1 160531Z 20007KT 26/14 A3004 RMK A01 T02560142  RH  049%=      5-min Rain = 0
KBR1 160532Z 20007KT 26/14 A3004 RMK A01 T02560142  RH  049%=      5-min Rain = 0
KBR1 160533Z 20007KT 26/14 A3004 RMK A01 T02560142  RH  049%=      5-min Rain = 0
KBR1 160534Z 20007KT 26/14 A3004 RMK A01 T02550141  RH  049%=      5-min Rain = 0
KBR1 160535Z 19007KT 25/14 A3004 RMK A01 T02540141  RH  050%=      5-min Rain = 0
KBR1 160536Z 20007KT 25/14 A3004 RMK A01 T02530141  RH  050%=      5-min Rain = 0
KBR1 160537Z 20007KT 25/14 A3004 RMK A01 T02520141  RH  050%=      5-min Rain = 0
KBR1 160538Z 20007KT 25/14 A3004 RMK A01 T02510141  RH  050%=      5-min Rain = 0
KBR1 160539Z 20007KT 25/14 A3004 RMK A01 T02510141  RH  050%=      5-min Rain = 0
KBR1 160540Z 20007KT 25/14 A3004 RMK A01 T02510140  RH  050%=      5-min Rain = 0
KBR1 160541Z 20008KT 25/14 A3004 RMK A01 T02510140  RH  050%=      5-min Rain = 0
KBR1 160542Z 20008KT 25/14 A3004 RMK A01 T02510140  RH  050%=      5-min Rain = 0
KBR1 160543Z 20008KT 25/14 A3004 RMK A01 T02510140  RH  050%=      5-min Rain = 0
KBR1 160544Z 20008KT 25/14 A3004 RMK A01 T02520140  RH  050%=      5-min Rain = 0
KBR1 160545Z 20008KT 25/14 A3004 RMK A01 T02520139  RH  050%=      5-min Rain = 0
KBR1 160546Z 21007KT 25/14 A3004 RMK A01 T02520139  RH  049%=      5-min Rain = 0
KBR1 160547Z 21008KT 25/14 A3004 RMK A01 T02530139  RH  049%=      5-min Rain = 0
KBR1 160548Z 21008KT 25/14 A3004 RMK A01 T02530139  RH  049%=      5-min Rain = 0
KBR1 160549Z 21008KT 25/14 A3004 RMK A01 T02530139  RH  049%=      5-min Rain = 0
KBR1 160550Z 21008KT 25/14 A3004 RMK A01 T02520138  RH  049%=      5-min Rain = 0
KBR1 160551Z 21008KT 25/14 A3004 RMK A01 T02510138  RH  050%=      5-min Rain = 0
KBR1 160552Z 21007KT 25/14 A3004 RMK A01 T02500138  RH  050%=      5-min Rain = 0
KBR1 160553Z 21007KT 25/14 A3004 RMK A01 T02500138  RH  050%=      5-min Rain = 0
KBR1 160554Z 21007KT 25/14 A3004 RMK A01 T02500138  RH  050%=      5-min Rain = 0
KBR1 160555Z 21008KT 25/14 A3004 RMK A01 T02490137  RH  050%=      5-min Rain = 0
KBR1 160556Z 21008KT 25/14 A3004 RMK A01 T02490138  RH  050%=      5-min Rain = 0
KBR1 160557Z 21008KT 25/14 A3004 RMK A01 T02490137  RH  050%=      5-min Rain = 0
KBR1 160558Z 21007KT 25/14 A3004 RMK A01 T02490137  RH  050%=      5-min Rain = 0
KBR1 160559Z 20007KT 25/14 A3004 RMK A01 T02480137  RH  050%=      5-min Rain = 0
KBR1 160600Z 21007KT 25/14 A3004 RMK A01 T02480137  RH  050%=      5-min Rain = 0
KBR1 160601Z 21008KT 25/14 A3004 RMK A01 T02480137  RH  050%=      5-min Rain = 0
KBR1 160602Z 20007KT 25/14 A3004 RMK A01 T02470136  RH  050%=      5-min Rain = 0
KBR1 160603Z 20008KT 25/14 A3004 RMK A01 T02480136  RH  050%=      5-min Rain = 0
KBR1 160604Z 20008KT 25/14 A3004 RMK A01 T02480136  RH  050%=      5-min Rain = 0
KBR1 160605Z 21008KT 25/14 A3004 RMK A01 T02480135  RH  050%=      5-min Rain = 0
KBR1 160606Z 21008KT 25/14 A3004 RMK A01 T02470135  RH  050%=      5-min Rain = 0
KBR1 160607Z 21008KT 25/14 A3004 RMK A01 T02480136  RH  050%=      5-min Rain = 0
KBR1 160608Z 21007KT 25/14 A3004 RMK A01 T02470135  RH  050%=      5-min Rain = 0
KBR1 160609Z 21007KT 25/14 A3004 RMK A01 T02470135  RH  050%=      5-min Rain = 0
KBR1 160610Z 21006KT 25/14 A3004 RMK A01 T02470135  RH  050%=      5-min Rain = 0
KBR1 160611Z 21006KT 25/14 A3004 RMK A01 T02460135  RH  050%=      5-min Rain = 0
KBR1 160612Z 20006KT 25/14 A3004 RMK A01 T02450135  RH  050%=      5-min Rain = 0
KBR1 160613Z 20006KT 25/14 A3004 RMK A01 T02450135  RH  050%=      5-min Rain = 0
KBR1 160614Z 20006KT 24/13 A3004 RMK A01 T02440134  RH  050%=      5-min Rain = 0
KBR1 160615Z 20006KT 24/13 A3004 RMK A01 T02440134  RH  050%=      5-min Rain = 0
KBR1 160616Z 20006KT 24/13 A3004 RMK A01 T02440134  RH  050%=      5-min Rain = 0
KBR1 160617Z 21006KT 24/13 A3004 RMK A01 T02430134  RH  050%=      5-min Rain = 0
KBR1 160618Z 20006KT 24/13 A3004 RMK A01 T02430134  RH  051%=      5-min Rain = 0
KBR1 160619Z 19006KT 24/13 A3004 RMK A01 T02420134  RH  051%=      5-min Rain = 0
KBR1 160620Z 19006KT 24/13 A3004 RMK A01 T02420133  RH  051%=      5-min Rain = 0
KBR1 160621Z 19006KT 24/13 A3004 RMK A01 T02410133  RH  051%=      5-min Rain = 0
KBR1 160622Z 19006KT 24/13 A3004 RMK A01 T02410132  RH  050%=      5-min Rain = 0
KBR1 160623Z 18006KT 24/13 A3004 RMK A01 T02420132  RH  050%=      5-min Rain = 0
KBR1 160624Z 17006KT 24/13 A3004 RMK A01 T02430132  RH  050%=      5-min Rain = 0
KBR1 160625Z 17005KT 24/13 A3004 RMK A01 T02430132  RH  050%=      5-min Rain = 0
KBR1 160626Z 16005KT 24/13 A3004 RMK A01 T02430133  RH  050%=      5-min Rain = 0
KBR1 160627Z 17006KT 24/13 A3004 RMK A01 T02420133  RH  051%=      5-min Rain = 0
KBR1 160628Z 17006KT 24/13 A3004 RMK A01 T02400134  RH  051%=      5-min Rain = 0
KBR1 160629Z 17006KT 24/13 A3004 RMK A01 T02390134  RH  052%=      5-min Rain = 0
KBR1 160630Z 17006KT 24/13 A3004 RMK A01 T02370134  RH  052%=      5-min Rain = 0
KBR1 160631Z 16006KT 24/14 A3004 RMK A01 T02360135  RH  053%=      5-min Rain = 0
KBR1 160632Z 16006KT 24/14 A3004 RMK A01 T02350135  RH  053%=      5-min Rain = 0
KBR1 160633Z 15006KT 24/14 A3004 RMK A01 T02350136  RH  054%=      5-min Rain = 0
KBR1 160634Z 15006KT 23/14 A3004 RMK A01 T02340136  RH  054%=      5-min Rain = 0
KBR1 160635Z 15006KT 23/14 A3004 RMK A01 T02340136  RH  054%=      5-min Rain = 0
KBR1 160636Z 15006KT 23/14 A3004 RMK A01 T02330136  RH  054%=      5-min Rain = 0
KBR1 160637Z 15006KT 23/14 A3004 RMK A01 T02330136  RH  054%=      5-min Rain = 0
KBR1 160638Z 15005KT 23/14 A3004 RMK A01 T02330137  RH  054%=      5-min Rain = 0
KBR1 160639Z 16005KT 23/14 A3004 RMK A01 T02330136  RH  054%=      5-min Rain = 0
KBR1 160640Z 16005KT 23/14 A3004 RMK A01 T02340137  RH  054%=      5-min Rain = 0
KBR1 160641Z 16005KT 23/14 A3004 RMK A01 T02340137  RH  054%=      5-min Rain = 0
KBR1 160642Z 16005KT 23/14 A3004 RMK A01 T02340137  RH  054%=      5-min Rain = 0
KBR1 160643Z 16005KT 24/14 A3004 RMK A01 T02350137  RH  054%=      5-min Rain = 0
KBR1 160644Z 16004KT 24/14 A3004 RMK A01 T02350137  RH  054%=      5-min Rain = 0
KBR1 160645Z 16004KT 24/14 A3004 RMK A01 T02350137  RH  054%=      5-min Rain = 0
KBR1 160646Z 16004KT 24/14 A3004 RMK A01 T02350136  RH  054%=      5-min Rain = 0
KBR1 160647Z 16005KT 24/14 A3004 RMK A01 T02360136  RH  054%=      5-min Rain = 0
KBR1 160648Z 16004KT 24/14 A3004 RMK A01 T02360137  RH  054%=      5-min Rain = 0
KBR1 160649Z 16004KT 24/14 A3004 RMK A01 T02360136  RH  053%=      5-min Rain = 0
KBR1 160650Z 16004KT 24/14 A3004 RMK A01 T02370136  RH  053%=      5-min Rain = 0
KBR1 160651Z 16005KT 24/14 A3004 RMK A01 T02380136  RH  053%=      5-min Rain = 0
KBR1 160652Z 16004KT 24/14 A3004 RMK A01 T02380136  RH  053%=      5-min Rain = 0
KBR1 160653Z 16004KT 24/14 A3004 RMK A01 T02380136  RH  053%=      5-min Rain = 0
KBR1 160654Z 15004KT 24/14 A3004 RMK A01 T02380136  RH  053%=      5-min Rain = 0
KBR1 160655Z 13004KT 24/14 A3004 RMK A01 T02380136  RH  053%=      5-min Rain = 0
KBR1 160656Z 13004KT 24/14 A3004 RMK A01 T02370136  RH  053%=      5-min Rain = 0
KBR1 160657Z 13004KT 24/14 A3004 RMK A01 T02360136  RH  054%=      5-min Rain = 0
KBR1 160658Z 13004KT 24/14 A3004 RMK A01 T02350136  RH  054%=      5-min Rain = 0
KBR1 160659Z 13004KT 23/14 A3004 RMK A01 T02340136  RH  054%=      5-min Rain = 0
KBR1 160700Z 13004KT 23/14 A3004 RMK A01 T02340137  RH  054%=      5-min Rain = 0
KBR1 160701Z 13004KT 23/14 A3004 RMK A01 T02340137  RH  054%=      5-min Rain = 0
KBR1 160702Z 13004KT 23/14 A3004 RMK A01 T02340137  RH  054%=      5-min Rain = 0
KBR1 160703Z 13004KT 23/14 A3004 RMK A01 T02340137  RH  054%=      5-min Rain = 0
KBR1 160704Z 14004KT 24/14 A3004 RMK A01 T02350137  RH  054%=      5-min Rain = 0
KBR1 160705Z 13004KT 24/14 A3004 RMK A01 T02350138  RH  054%=      5-min Rain = 0
KBR1 160706Z 13004KT 24/14 A3004 RMK A01 T02360138  RH  054%=      5-min Rain = 0
KBR1 160707Z 14004KT 24/14 A3004 RMK A01 T02360138  RH  054%=      5-min Rain = 0
KBR1 160708Z 14004KT 24/14 A3004 RMK A01 T02360138  RH  054%=      5-min Rain = 0
KBR1 160709Z 13005KT 24/14 A3004 RMK A01 T02350138  RH  054%=      5-min Rain = 0
KBR1 160710Z 13005KT 23/14 A3004 RMK A01 T02340138  RH  055%=      5-min Rain = 0
KBR1 160711Z 13005KT 23/14 A3004 RMK A01 T02340138  RH  055%=      5-min Rain = 0
KBR1 160712Z 13005KT 23/14 A3004 RMK A01 T02330138  RH  055%=      5-min Rain = 0
KBR1 160713Z 12005KT 23/14 A3004 RMK A01 T02320138  RH  055%=      5-min Rain = 0
KBR1 160714Z 12005KT 23/14 A3004 RMK A01 T02320138  RH  056%=      5-min Rain = 0
KBR1 160715Z 12005KT 23/14 A3004 RMK A01 T02310138  RH  056%=      5-min Rain = 0
KBR1 160716Z 13005KT 23/14 A3004 RMK A01 T02310138  RH  056%=      5-min Rain = 0
KBR1 160717Z 12005KT 23/14 A3004 RMK A01 T02310138  RH  056%=      5-min Rain = 0
KBR1 160718Z 12005KT 23/14 A3004 RMK A01 T02310139  RH  056%=      5-min Rain = 0
KBR1 160719Z 13005KT 23/14 A3004 RMK A01 T02300139  RH  056%=      5-min Rain = 0
KBR1 160720Z 12005KT 23/14 A3004 RMK A01 T02300139  RH  057%=      5-min Rain = 0
KBR1 160721Z 12004KT 23/14 A3004 RMK A01 T02300140  RH  057%=      5-min Rain = 0
KBR1 160722Z 12004KT 23/14 A3004 RMK A01 T02300140  RH  057%=      5-min Rain = 0
KBR1 160723Z 12004KT 23/14 A3004 RMK A01 T02300140  RH  057%=      5-min Rain = 0
KBR1 160724Z 12004KT 23/14 A3004 RMK A01 T02300140  RH  057%=      5-min Rain = 0
KBR1 160725Z 13004KT 23/14 A3004 RMK A01 T02300140  RH  057%=      5-min Rain = 0
KBR1 160726Z 13004KT 23/14 A3004 RMK A01 T02310139  RH  056%=      5-min Rain = 0
KBR1 160727Z 11004KT 23/14 A3004 RMK A01 T02340139  RH  055%=      5-min Rain = 0
KBR1 160728Z 12004KT 23/14 A3004 RMK A01 T02340140  RH  055%=      5-min Rain = 0
KBR1 160729Z 12004KT 23/14 A3004 RMK A01 T02330140  RH  056%=      5-min Rain = 0
KBR1 160730Z 13004KT 23/14 A3004 RMK A01 T02310139  RH  056%=      5-min Rain = 0
KBR1 160731Z 13004KT 23/14 A3004 RMK A01 T02300140  RH  057%=      5-min Rain = 0
KBR1 160732Z 13004KT 23/14 A3004 RMK A01 T02290139  RH  057%=      5-min Rain = 0
KBR1 160733Z 13003KT 23/14 A3004 RMK A01 T02280139  RH  057%=      5-min Rain = 0
KBR1 160734Z 13003KT 23/14 A3004 RMK A01 T02270139  RH  057%=      5-min Rain = 0
KBR1 160735Z 13003KT 23/14 A3004 RMK A01 T02270139  RH  058%=      5-min Rain = 0
KBR1 160736Z 12003KT 23/14 A3004 RMK A01 T02260139  RH  058%=      5-min Rain = 0
KBR1 160737Z 11004KT 22/14 A3004 RMK A01 T02220138  RH  059%=      5-min Rain = 0
KBR1 160738Z 11004KT 22/14 A3004 RMK A01 T02200138  RH  060%=      5-min Rain = 0
KBR1 160739Z 11004KT 22/14 A3004 RMK A01 T02180138  RH  060%=      5-min Rain = 0
KBR1 160740Z 11004KT 22/14 A3004 RMK A01 T02170138  RH  061%=      5-min Rain = 0
KBR1 160741Z 11004KT 22/14 A3004 RMK A01 T02160138  RH  061%=      5-min Rain = 0
KBR1 160742Z 11004KT 22/14 A3004 RMK A01 T02170138  RH  061%=      5-min Rain = 0
KBR1 160743Z 11004KT 22/14 A3003 RMK A01 T02170138  RH  061%=      5-min Rain = 0
KBR1 160744Z 12004KT 22/14 A3003 RMK A01 T02170138  RH  061%=      5-min Rain = 0
KBR1 160745Z 12004KT 22/14 A3003 RMK A01 T02160138  RH  061%=      5-min Rain = 0
KBR1 160746Z 12004KT 22/14 A3003 RMK A01 T02160138  RH  061%=      5-min Rain = 0
KBR1 160747Z 13004KT 22/14 A3003 RMK A01 T02170138  RH  061%=      5-min Rain = 0
KBR1 160748Z 13003KT 22/14 A3003 RMK A01 T02180138  RH  060%=      5-min Rain = 0
KBR1 160749Z 13003KT 22/14 A3004 RMK A01 T02190138  RH  060%=      5-min Rain = 0
KBR1 160750Z 12001KT 22/14 A3004 RMK A01 T02200138  RH  060%=      5-min Rain = 0
KBR1 160751Z 12002KT 22/14 A3004 RMK A01 T02170137  RH  060%=      5-min Rain = 0
KBR1 160752Z 12002KT 22/14 A3004 RMK A01 T02160137  RH  061%=      5-min Rain = 0
KBR1 160753Z 12002KT 22/14 A3004 RMK A01 T02150138  RH  061%=      5-min Rain = 0
KBR1 160754Z 12002KT 22/14 A3004 RMK A01 T02150137  RH  061%=      5-min Rain = 0
KBR1 160755Z 10002KT 22/14 A3004 RMK A01 T02150137  RH  061%=      5-min Rain = 0
KBR1 160756Z 09002KT 21/14 A3004 RMK A01 T02140137  RH  061%=      5-min Rain = 0
KBR1 160757Z 07002KT 21/14 A3004 RMK A01 T02140137  RH  062%=      5-min Rain = 0
KBR1 160758Z 05001KT 21/14 A3004 RMK A01 T02130137  RH  062%=      5-min Rain = 0
KBR1 160759Z 05002KT 21/14 A3003 RMK A01 T02130137  RH  062%=      5-min Rain = 0
KBR1 160800Z 06002KT 21/14 A3003 RMK A01 T02140136  RH  061%=      5-min Rain = 0
KBR1 160801Z 09002KT 22/14 A3003 RMK A01 T02150136  RH  061%=      5-min Rain = 0
KBR1 160802Z 09002KT 22/14 A3003 RMK A01 T02150136  RH  061%=      5-min Rain = 0
KBR1 160803Z 10002KT 22/14 A3003 RMK A01 T02150137  RH  061%=      5-min Rain = 0
KBR1 160804Z 11002KT 22/14 A3003 RMK A01 T02160137  RH  061%=      5-min Rain = 0
KBR1 160805Z 11002KT 22/14 A3003 RMK A01 T02170137  RH  060%=      5-min Rain = 0
KBR1 160806Z 10002KT 22/14 A3003 RMK A01 T02170137  RH  060%=      5-min Rain = 0
KBR1 160807Z 10003KT 22/14 A3003 RMK A01 T02150136  RH  061%=      5-min Rain = 0
KBR1 160808Z 10003KT 21/14 A3003 RMK A01 T02130136  RH  061%=      5-min Rain = 0
KBR1 160809Z 10003KT 21/14 A3003 RMK A01 T02120137  RH  062%=      5-min Rain = 0
KBR1 160810Z 10004KT 21/14 A3003 RMK A01 T02140137  RH  062%=      5-min Rain = 0
KBR1 160811Z 11004KT 22/14 A3003 RMK A01 T02150138  RH  061%=      5-min Rain = 0
KBR1 160812Z 12004KT 22/14 A3003 RMK A01 T02160137  RH  061%=      5-min Rain = 0
KBR1 160813Z 12004KT 22/14 A3003 RMK A01 T02160137  RH  061%=      5-min Rain = 0
KBR1 160814Z 12004KT 22/14 A3003 RMK A01 T02160137  RH  061%=      5-min Rain = 0
KBR1 160815Z 13004KT 22/14 A3003 RMK A01 T02190138  RH  060%=      5-min Rain = 0
KBR1 160816Z 13004KT 22/14 A3003 RMK A01 T02210138  RH  059%=      5-min Rain = 0
KBR1 160817Z 13004KT 22/14 A3003 RMK A01 T02240139  RH  059%=      5-min Rain = 0
KBR1 160818Z 13003KT 23/14 A3003 RMK A01 T02250138  RH  058%=      5-min Rain = 0
KBR1 160819Z 13003KT 23/14 A3003 RMK A01 T02260138  RH  058%=      5-min Rain = 0
KBR1 160820Z 13002KT 23/14 A3003 RMK A01 T02270138  RH  057%=      5-min Rain = 0
KBR1 160821Z 11002KT 23/14 A3003 RMK A01 T02250137  RH  058%=      5-min Rain = 0
KBR1 160822Z 11002KT 22/14 A3003 RMK A01 T02200137  RH  059%=      5-min Rain = 0
KBR1 160823Z 11002KT 22/14 A3003 RMK A01 T02160137  RH  061%=      5-min Rain = 0
KBR1 160824Z 11002KT 21/14 A3003 RMK A01 T02140137  RH  061%=      5-min Rain = 0
KBR1 160825Z 11003KT 21/14 A3003 RMK A01 T02140138  RH  062%=      5-min Rain = 0
KBR1 160826Z 11003KT 21/14 A3003 RMK A01 T02140137  RH  062%=      5-min Rain = 0
KBR1 160827Z 11002KT 22/14 A3003 RMK A01 T02150137  RH  061%=      5-min Rain = 0
KBR1 160828Z 11002KT 22/14 A3003 RMK A01 T02150137  RH  061%=      5-min Rain = 0
KBR1 160829Z 11002KT 22/14 A3002 RMK A01 T02150137  RH  061%=      5-min Rain = 0
KBR1 160830Z 09002KT 22/14 A3002 RMK A01 T02150137  RH  061%=      5-min Rain = 0
KBR1 160831Z 09001KT 22/14 A3002 RMK A01 T02150137  RH  061%=      5-min Rain = 0
KBR1 160832Z 12002KT 22/14 A3002 RMK A01 T02150137  RH  061%=      5-min Rain = 0
KBR1 160833Z 13003KT 21/14 A3002 RMK A01 T02140136  RH  061%=      5-min Rain = 0
KBR1 160834Z 13003KT 21/14 A3002 RMK A01 T02140137  RH  061%=      5-min Rain = 0
KBR1 160835Z 13003KT 21/14 A3002 RMK A01 T02140137  RH  061%=      5-min Rain = 0
KBR1 160836Z 13003KT 22/14 A3002 RMK A01 T02150137  RH  061%=      5-min Rain = 0
KBR1 160837Z 13003KT 22/14 A3002 RMK A01 T02170138  RH  061%=      5-min Rain = 0
KBR1 160838Z 12003KT 22/14 A3002 RMK A01 T02180137  RH  060%=      5-min Rain = 0
KBR1 160839Z 12003KT 22/14 A3002 RMK A01 T02180137  RH  060%=      5-min Rain = 0
KBR1 160840Z 12004KT 22/14 A3002 RMK A01 T02190137  RH  060%=      5-min Rain = 0
KBR1 160841Z 12004KT 22/14 A3002 RMK A01 T02170137  RH  060%=      5-min Rain = 0
KBR1 160842Z 12004KT 22/14 A3002 RMK A01 T02160137  RH  061%=      5-min Rain = 0
KBR1 160843Z 13004KT 21/14 A3002 RMK A01 T02140137  RH  061%=      5-min Rain = 0
KBR1 160844Z 14004KT 21/14 A3002 RMK A01 T02130137  RH  062%=      5-min Rain = 0
KBR1 160845Z 14004KT 21/14 A3002 RMK A01 T02130137  RH  062%=      5-min Rain = 0
KBR1 160846Z 14003KT 21/14 A3002 RMK A01 T02130137  RH  062%=      5-min Rain = 0
KBR1 160847Z 14003KT 22/14 A3002 RMK A01 T02150138  RH  061%=      5-min Rain = 0
KBR1 160848Z 14003KT 22/14 A3002 RMK A01 T02170138  RH  061%=      5-min Rain = 0
KBR1 160849Z 13003KT 22/14 A3002 RMK A01 T02180138  RH  060%=      5-min Rain = 0
KBR1 160850Z 13003KT 22/14 A3002 RMK A01 T02180138  RH  060%=      5-min Rain = 0
KBR1 160851Z 13003KT 22/14 A3002 RMK A01 T02180138  RH  060%=      5-min Rain = 0
KBR1 160852Z 14003KT 22/14 A3002 RMK A01 T02190138  RH  060%=      5-min Rain = 0
KBR1 160853Z 14003KT 22/14 A3002 RMK A01 T02220139  RH  059%=      5-min Rain = 0
KBR1 160854Z 14003KT 23/14 A3002 RMK A01 T02260140  RH  058%=      5-min Rain = 0
KBR1 160855Z 14003KT 23/14 A3002 RMK A01 T02280139  RH  057%=      5-min Rain = 0
KBR1 160856Z 14003KT 23/14 A3002 RMK A01 T02310140  RH  056%=      5-min Rain = 0
KBR1 160857Z 14003KT 23/14 A3002 RMK A01 T02330140  RH  056%=      5-min Rain = 0
KBR1 160858Z 13004KT 23/14 A3002 RMK A01 T02340139  RH  055%=      5-min Rain = 0
KBR1 160859Z 13004KT 23/14 A3002 RMK A01 T02340139  RH  055%=      5-min Rain = 0
KBR1 160900Z 12004KT 23/14 A3002 RMK A01 T02330139  RH  055%=      5-min Rain = 0
KBR1 160901Z 12004KT 23/14 A3002 RMK A01 T02320139  RH  056%=      5-min Rain = 0
KBR1 160902Z 12005KT 23/14 A3002 RMK A01 T02310138  RH  056%=      5-min Rain = 0
KBR1 160903Z 12005KT 23/14 A3002 RMK A01 T02300138  RH  056%=      5-min Rain = 0
KBR1 160904Z 12005KT 23/14 A3002 RMK A01 T02280138  RH  057%=      5-min Rain = 0
KBR1 160905Z 12005KT 23/14 A3002 RMK A01 T02270138  RH  057%=      5-min Rain = 0
KBR1 160906Z 12005KT 23/14 A3002 RMK A01 T02260138  RH  057%=      5-min Rain = 0
KBR1 160907Z 13005KT 23/14 A3002 RMK A01 T02260138  RH  058%=      5-min Rain = 0
KBR1 160908Z 12004KT 23/14 A3002 RMK A01 T02260138  RH  058%=      5-min Rain = 0
KBR1 160909Z 12004KT 23/14 A3001 RMK A01 T02250138  RH  058%=      5-min Rain = 0
KBR1 160910Z 12005KT 23/14 A3001 RMK A01 T02250138  RH  058%=      5-min Rain = 0
KBR1 160911Z 12005KT 23/14 A3001 RMK A01 T02250138  RH  058%=      5-min Rain = 0
KBR1 160912Z 12004KT 23/14 A3001 RMK A01 T02250138  RH  058%=      5-min Rain = 0
KBR1 160913Z 12004KT 22/14 A3001 RMK A01 T02240138  RH  058%=      5-min Rain = 0
KBR1 160914Z 12004KT 22/14 A3002 RMK A01 T02230138  RH  058%=      5-min Rain = 0
KBR1 160915Z 10004KT 22/14 A3002 RMK A01 T02200137  RH  059%=      5-min Rain = 0
KBR1 160916Z 09002KT 22/14 A3001 RMK A01 T02180137  RH  060%=      5-min Rain = 0
KBR1 160917Z 04001KT 22/14 A3001 RMK A01 T02160137  RH  061%=      5-min Rain = 0
KBR1 160918Z 06001KT 21/14 A3001 RMK A01 T02140137  RH  062%=      5-min Rain = 0
KBR1 160919Z 06002KT 21/14 A3001 RMK A01 T02130137  RH  062%=      5-min Rain = 0
KBR1 160920Z 07002KT 21/14 A3001 RMK A01 T02130137  RH  062%=      5-min Rain = 0
KBR1 160921Z 07002KT 21/14 A3001 RMK A01 T02130137  RH  062%=      5-min Rain = 0
KBR1 160922Z 09002KT 22/14 A3001 RMK A01 T02150137  RH  061%=      5-min Rain = 0
KBR1 160923Z 08002KT 22/14 A3001 RMK A01 T02160137  RH  061%=      5-min Rain = 0
KBR1 160924Z 09002KT 22/14 A3001 RMK A01 T02170137  RH  061%=      5-min Rain = 0
KBR1 160925Z 08002KT 22/14 A3001 RMK A01 T02170138  RH  060%=      5-min Rain = 0
KBR1 160926Z 08002KT 22/14 A3001 RMK A01 T02170137  RH  061%=      5-min Rain = 0
KBR1 160927Z 09002KT 22/14 A3001 RMK A01 T02160137  RH  061%=      5-min Rain = 0
KBR1 160928Z 09002KT 22/14 A3001 RMK A01 T02160137  RH  061%=      5-min Rain = 0
KBR1 160929Z 08001KT 22/14 A3001 RMK A01 T02150137  RH  061%=      5-min Rain = 0
KBR1 160930Z 10001KT 22/14 A3001 RMK A01 T02150137  RH  061%=      5-min Rain = 0
KBR1 160931Z 10002KT 21/14 A3001 RMK A01 T02140137  RH  061%=      5-min Rain = 0
KBR1 160932Z 10002KT 21/14 A3001 RMK A01 T02140137  RH  061%=      5-min Rain = 0
KBR1 160933Z 12002KT 21/14 A3001 RMK A01 T02140137  RH  061%=      5-min Rain = 0
KBR1 160934Z 13003KT 21/14 A3001 RMK A01 T02140137  RH  061%=      5-min Rain = 0
KBR1 160935Z 13003KT 21/14 A3001 RMK A01 T02140137  RH  061%=      5-min Rain = 0
KBR1 160936Z 13004KT 22/14 A3001 RMK A01 T02150137  RH  061%=      5-min Rain = 0
KBR1 160937Z 13004KT 22/14 A3001 RMK A01 T02160137  RH  061%=      5-min Rain = 0
KBR1 160938Z 14004KT 22/14 A3001 RMK A01 T02160137  RH  060%=      5-min Rain = 0
KBR1 160939Z 14003KT 22/14 A3001 RMK A01 T02170137  RH  060%=      5-min Rain = 0
KBR1 160940Z 14003KT 22/14 A3001 RMK A01 T02160137  RH  060%=      5-min Rain = 0
KBR1 160941Z 14003KT 22/14 A3001 RMK A01 T02160136  RH  061%=      5-min Rain = 0
KBR1 160942Z 13003KT 22/14 A3001 RMK A01 T02150136  RH  061%=      5-min Rain = 0
KBR1 160943Z 13004KT 22/14 A3001 RMK A01 T02150137  RH  061%=      5-min Rain = 0
KBR1 160944Z 13004KT 22/14 A3002 RMK A01 T02150137  RH  061%=      5-min Rain = 0
KBR1 160945Z 13004KT 22/14 A3002 RMK A01 T02150137  RH  061%=      5-min Rain = 0
KBR1 160946Z 13004KT 22/14 A3001 RMK A01 T02160137  RH  061%=      5-min Rain = 0
KBR1 160947Z 13004KT 22/14 A3001 RMK A01 T02170137  RH  060%=      5-min Rain = 0
KBR1 160948Z 13003KT 22/14 A3001 RMK A01 T02180137  RH  060%=      5-min Rain = 0
KBR1 160949Z 12004KT 22/14 A3001 RMK A01 T02180137  RH  060%=      5-min Rain = 0
KBR1 160950Z 12004KT 22/14 A3001 RMK A01 T02180137  RH  060%=      5-min Rain = 0
KBR1 160951Z 12004KT 22/14 A3001 RMK A01 T02180137  RH  060%=      5-min Rain = 0
KBR1 160952Z 12004KT 22/14 A3001 RMK A01 T02170137  RH  060%=      5-min Rain = 0
KBR1 160953Z 13004KT 22/14 A3001 RMK A01 T02160137  RH  061%=      5-min Rain = 0
KBR1 160954Z 13003KT 21/14 A3001 RMK A01 T02130136  RH  061%=      5-min Rain = 0
KBR1 160955Z 13003KT 21/14 A3001 RMK A01 T02110136  RH  062%=      5-min Rain = 0
KBR1 160956Z 13003KT 21/14 A3001 RMK A01 T02090136  RH  063%=      5-min Rain = 0
KBR1 160957Z 12003KT 21/14 A3001 RMK A01 T02080136  RH  063%=      5-min Rain = 0
KBR1 160958Z 12002KT 21/14 A3001 RMK A01 T02090136  RH  063%=      5-min Rain = 0
KBR1 160959Z 12002KT 21/14 A3001 RMK A01 T02090136  RH  063%=      5-min Rain = 0
KBR1 161000Z 12001KT 21/14 A3001 RMK A01 T02090136  RH  063%=      5-min Rain = 0
KBR1 161001Z 13001KT 21/14 A3001 RMK A01 T02100137  RH  063%=      5-min Rain = 0
KBR1 161002Z 13001KT 21/14 A3001 RMK A01 T02100136  RH  063%=      5-min Rain = 0
KBR1 161003Z 13000KT 21/14 A3001 RMK A01 T02110136  RH  062%=      5-min Rain = 0
KBR1 161004Z 13001KT 21/14 A3001 RMK A01 T02110136  RH  062%=      5-min Rain = 0
KBR1 161005Z 13000KT 21/14 A3001 RMK A01 T02120136  RH  062%=      5-min Rain = 0
KBR1 161006Z 13000KT 21/14 A3001 RMK A01 T02130136  RH  061%=      5-min Rain = 0
KBR1 161007Z 00000KT 21/14 A3001 RMK A01 T02140136  RH  061%=      5-min Rain = 0
KBR1 161008Z 00000KT 21/14 A3001 RMK A01 T02130136  RH  061%=      5-min Rain = 0
KBR1 161009Z 00000KT 21/14 A3001 RMK A01 T02130136  RH  061%=      5-min Rain = 0
KBR1 161010Z 00000KT 21/14 A3001 RMK A01 T02120136  RH  062%=      5-min Rain = 0
KBR1 161011Z 00000KT 21/14 A3001 RMK A01 T02100136  RH  063%=      5-min Rain = 0
KBR1 161012Z 00000KT 21/14 A3001 RMK A01 T02080136  RH  063%=      5-min Rain = 0
KBR1 161013Z 00000KT 21/14 A3001 RMK A01 T02080136  RH  064%=      5-min Rain = 0
KBR1 161014Z 00000KT 21/14 A3001 RMK A01 T02070136  RH  064%=      5-min Rain = 0
KBR1 161015Z 00000KT 21/14 A3001 RMK A01 T02060136  RH  064%=      5-min Rain = 0
KBR1 161016Z 00000KT 21/14 A3001 RMK A01 T02060136  RH  064%=      5-min Rain = 0
KBR1 161017Z 00000KT 21/14 A3001 RMK A01 T02050135  RH  064%=      5-min Rain = 0
KBR1 161018Z 00000KT 20/13 A3001 RMK A01 T02040134  RH  064%=      5-min Rain = 0
KBR1 161019Z 00000KT 20/14 A3001 RMK A01 T02030135  RH  065%=      5-min Rain = 0
KBR1 161020Z 00000KT 20/13 A3001 RMK A01 T02020134  RH  065%=      5-min Rain = 0
KBR1 161021Z 02000KT 20/13 A3001 RMK A01 T02010134  RH  065%=      5-min Rain = 0
KBR1 161022Z 02001KT 20/13 A3001 RMK A01 T02000134  RH  065%=      5-min Rain = 0
KBR1 161023Z 02001KT 20/13 A3001 RMK A01 T02000134  RH  066%=      5-min Rain = 0
KBR1 161024Z 02001KT 20/13 A3001 RMK A01 T01980134  RH  066%=      5-min Rain = 0
KBR1 161025Z 02001KT 20/13 A3001 RMK A01 T01980134  RH  067%=      5-min Rain = 0
KBR1 161026Z 02001KT 20/13 A3001 RMK A01 T01980134  RH  067%=      5-min Rain = 0
KBR1 161027Z 02001KT 20/14 A3002 RMK A01 T01980135  RH  067%=      5-min Rain = 0
KBR1 161028Z 02001KT 20/14 A3002 RMK A01 T01980135  RH  067%=      5-min Rain = 0
KBR1 161029Z 02002KT 20/14 A3002 RMK A01 T01990135  RH  067%=      5-min Rain = 0
KBR1 161030Z 03002KT 20/14 A3002 RMK A01 T01990135  RH  067%=      5-min Rain = 0
KBR1 161031Z 03002KT 20/14 A3002 RMK A01 T01990135  RH  066%=      5-min Rain = 0
KBR1 161032Z 04002KT 20/14 A3002 RMK A01 T02000135  RH  066%=      5-min Rain = 0
KBR1 161033Z 05002KT 20/14 A3002 RMK A01 T02010135  RH  066%=      5-min Rain = 0
KBR1 161034Z 06003KT 20/14 A3002 RMK A01 T02020135  RH  065%=      5-min Rain = 0
KBR1 161035Z 07003KT 20/14 A3002 RMK A01 T02020135  RH  065%=      5-min Rain = 0
KBR1 161036Z 07004KT 20/14 A3002 RMK A01 T02030135  RH  065%=      5-min Rain = 0
KBR1 161037Z 07003KT 20/14 A3002 RMK A01 T02020135  RH  065%=      5-min Rain = 0
KBR1 161038Z 07004KT 20/14 A3002 RMK A01 T02010135  RH  066%=      5-min Rain = 0
KBR1 161039Z 07004KT 20/14 A3002 RMK A01 T02010135  RH  066%=      5-min Rain = 0
KBR1 161040Z 07004KT 20/14 A3002 RMK A01 T02010135  RH  066%=      5-min Rain = 0
KBR1 161041Z 08004KT 20/14 A3002 RMK A01 T02010136  RH  066%=      5-min Rain = 0
KBR1 161042Z 08004KT 20/14 A3002 RMK A01 T02020135  RH  065%=      5-min Rain = 0
KBR1 161043Z 08004KT 20/14 A3002 RMK A01 T02030136  RH  065%=      5-min Rain = 0
KBR1 161044Z 09004KT 20/14 A3002 RMK A01 T02040136  RH  065%=      5-min Rain = 0
KBR1 161045Z 09004KT 21/14 A3002 RMK A01 T02050136  RH  065%=      5-min Rain = 0
KBR1 161046Z 09004KT 21/14 A3002 RMK A01 T02060136  RH  064%=      5-min Rain = 0
KBR1 161047Z 09004KT 21/14 A3002 RMK A01 T02060136  RH  064%=      5-min Rain = 0
KBR1 161048Z 09004KT 21/14 A3002 RMK A01 T02060136  RH  064%=      5-min Rain = 0
KBR1 161049Z 09003KT 21/14 A3002 RMK A01 T02060136  RH  064%=      5-min Rain = 0
KBR1 161050Z 09003KT 21/14 A3002 RMK A01 T02060136  RH  064%=      5-min Rain = 0
KBR1 161051Z 08003KT 21/14 A3002 RMK A01 T02060136  RH  064%=      5-min Rain = 0
KBR1 161052Z 06002KT 21/14 A3002 RMK A01 T02050135  RH  064%=      5-min Rain = 0
KBR1 161053Z 06002KT 20/14 A3002 RMK A01 T02030136  RH  065%=      5-min Rain = 0
KBR1 161054Z 06001KT 20/14 A3002 RMK A01 T02010136  RH  066%=      5-min Rain = 0
KBR1 161055Z 04001KT 20/14 A3002 RMK A01 T02000135  RH  066%=      5-min Rain = 0
KBR1 161056Z 09001KT 20/14 A3002 RMK A01 T01990135  RH  066%=      5-min Rain = 0
KBR1 161057Z 08000KT 20/14 A3002 RMK A01 T01990135  RH  066%=      5-min Rain = 0
KBR1 161058Z 07000KT 20/13 A3002 RMK A01 T01980134  RH  066%=      5-min Rain = 0
KBR1 161059Z 10000KT 20/13 A3002 RMK A01 T01980134  RH  067%=      5-min Rain = 0
KBR1 161100Z 11001KT 20/13 A3002 RMK A01 T01980134  RH  066%=      5-min Rain = 0
KBR1 161101Z 13001KT 20/13 A3002 RMK A01 T01990134  RH  066%=      5-min Rain = 0
KBR1 161102Z 12001KT 20/13 A3002 RMK A01 T02000134  RH  066%=      5-min Rain = 0
KBR1 161103Z 12002KT 20/14 A3002 RMK A01 T02000135  RH  066%=      5-min Rain = 0
KBR1 161104Z 13002KT 20/14 A3002 RMK A01 T02000135  RH  066%=      5-min Rain = 0
KBR1 161105Z 13002KT 20/13 A3002 RMK A01 T02010134  RH  065%=      5-min Rain = 0
KBR1 161106Z 14002KT 21/14 A3002 RMK A01 T02050135  RH  064%=      5-min Rain = 0
KBR1 161107Z 14003KT 21/13 A3003 RMK A01 T02080134  RH  063%=      5-min Rain = 0
KBR1 161108Z 14003KT 21/13 A3003 RMK A01 T02100134  RH  062%=      5-min Rain = 0
KBR1 161109Z 15003KT 21/13 A3003 RMK A01 T02130134  RH  060%=      5-min Rain = 0
KBR1 161110Z 15003KT 22/13 A3003 RMK A01 T02170134  RH  059%=      5-min Rain = 0
KBR1 161111Z 14003KT 22/13 A3003 RMK A01 T02200133  RH  058%=      5-min Rain = 0
KBR1 161112Z 14003KT 22/13 A3003 RMK A01 T02230133  RH  057%=      5-min Rain = 0
KBR1 161113Z 14003KT 22/13 A3003 RMK A01 T02240133  RH  056%=      5-min Rain = 0
KBR1 161114Z 14003KT 22/13 A3003 RMK A01 T02240133  RH  056%=      5-min Rain = 0
KBR1 161115Z 13003KT 22/13 A3003 RMK A01 T02240133  RH  056%=      5-min Rain = 0
KBR1 161116Z 12003KT 22/13 A3003 RMK A01 T02220132  RH  057%=      5-min Rain = 0
KBR1 161117Z 12003KT 22/13 A3003 RMK A01 T02220132  RH  057%=      5-min Rain = 0
KBR1 161118Z 13003KT 22/13 A3003 RMK A01 T02220132  RH  057%=      5-min Rain = 0
KBR1 161119Z 12003KT 22/13 A3003 RMK A01 T02220132  RH  057%=      5-min Rain = 0
KBR1 161120Z 12003KT 22/13 A3003 RMK A01 T02230133  RH  057%=      5-min Rain = 0
KBR1 161121Z 11003KT 22/13 A3003 RMK A01 T02230133  RH  057%=      5-min Rain = 0
KBR1 161122Z 11003KT 22/13 A3003 RMK A01 T02210133  RH  057%=      5-min Rain = 0
KBR1 161123Z 10003KT 22/13 A3003 RMK A01 T02200133  RH  057%=      5-min Rain = 0
KBR1 161124Z 10003KT 22/13 A3003 RMK A01 T02190133  RH  058%=      5-min Rain = 0
KBR1 161125Z 10003KT 22/13 A3003 RMK A01 T02180132  RH  058%=      5-min Rain = 0
KBR1 161126Z 10003KT 22/13 A3003 RMK A01 T02170133  RH  059%=      5-min Rain = 0
KBR1 161127Z 10003KT 22/13 A3003 RMK A01 T02160133  RH  059%=      5-min Rain = 0
KBR1 161128Z 10003KT 22/13 A3003 RMK A01 T02150133  RH  060%=      5-min Rain = 0
KBR1 161129Z 09003KT 21/13 A3003 RMK A01 T02140133  RH  060%=      5-min Rain = 0
KBR1 161130Z 08003KT 21/13 A3003 RMK A01 T02130133  RH  060%=      5-min Rain = 0
KBR1 161131Z 04003KT 21/13 A3003 RMK A01 T02110133  RH  061%=      5-min Rain = 0
KBR1 161132Z 01002KT 21/13 A3004 RMK A01 T02080133  RH  062%=      5-min Rain = 0
KBR1 161133Z 01002KT 20/13 A3004 RMK A01 T02040133  RH  063%=      5-min Rain = 0
KBR1 161134Z 01002KT 20/13 A3004 RMK A01 T02010132  RH  064%=      5-min Rain = 0
KBR1 161135Z 01002KT 20/13 A3004 RMK A01 T01990132  RH  065%=      5-min Rain = 0
KBR1 161136Z 00002KT 20/13 A3004 RMK A01 T01980132  RH  065%=      5-min Rain = 0
KBR1 161137Z 36002KT 20/13 A3004 RMK A01 T01980131  RH  065%=      5-min Rain = 0
KBR1 161138Z 35003KT 20/13 A3004 RMK A01 T01980131  RH  065%=      5-min Rain = 0
KBR1 161139Z 35003KT 20/13 A3004 RMK A01 T01970131  RH  066%=      5-min Rain = 0
KBR1 161140Z 35003KT 20/13 A3004 RMK A01 T01970132  RH  066%=      5-min Rain = 0
KBR1 161141Z 36003KT 20/13 A3004 RMK A01 T01960132  RH  066%=      5-min Rain = 0
KBR1 161142Z 36003KT 20/13 A3004 RMK A01 T01960132  RH  067%=      5-min Rain = 0
KBR1 161143Z 35003KT 20/13 A3004 RMK A01 T01960132  RH  067%=      5-min Rain = 0
KBR1 161144Z 35003KT 20/13 A3004 RMK A01 T01960132  RH  067%=      5-min Rain = 0
KBR1 161145Z 35003KT 20/13 A3004 RMK A01 T01960132  RH  067%=      5-min Rain = 0
KBR1 161146Z 35003KT 20/13 A3004 RMK A01 T01950132  RH  067%=      5-min Rain = 0
KBR1 161147Z 36003KT 19/13 A3004 RMK A01 T01940132  RH  067%=      5-min Rain = 0
KBR1 161148Z 00004KT 19/13 A3004 RMK A01 T01930132  RH  068%=      5-min Rain = 0
KBR1 161149Z 00004KT 19/13 A3004 RMK A01 T01930132  RH  068%=      5-min Rain = 0
KBR1 161150Z 00005KT 19/13 A3004 RMK A01 T01920132  RH  068%=      5-min Rain = 0
KBR1 161151Z 00005KT 19/13 A3004 RMK A01 T01920132  RH  068%=      5-min Rain = 0
KBR1 161152Z 01004KT 19/13 A3004 RMK A01 T01920132  RH  068%=      5-min Rain = 0
KBR1 161153Z 01004KT 19/13 A3004 RMK A01 T01910132  RH  068%=      5-min Rain = 0
KBR1 161154Z 01004KT 19/13 A3004 RMK A01 T01910132  RH  068%=      5-min Rain = 0
KBR1 161155Z 02004KT 19/13 A3004 RMK A01 T01910131  RH  068%=      5-min Rain = 0
KBR1 161156Z 03004KT 19/13 A3004 RMK A01 T01920132  RH  068%=      5-min Rain = 0
KBR1 161157Z 03004KT 19/13 A3004 RMK A01 T01930132  RH  067%=      5-min Rain = 0
KBR1 161158Z 03004KT 20/13 A3004 RMK A01 T01950132  RH  067%=      5-min Rain = 0
KBR1 161159Z 04003KT 20/13 A3004 RMK A01 T01960132  RH  066%=      5-min Rain = 0
KBR1 161200Z 03003KT 20/13 A3004 RMK A01 T01980132  RH  066%=      5-min Rain = 0
KBR1 161201Z 03003KT 20/13 A3004 RMK A01 T01980132  RH  066%=      5-min Rain = 0
KBR1 161202Z 03003KT 20/13 A3004 RMK A01 T01980132  RH  066%=      5-min Rain = 0
KBR1 161203Z 04003KT 20/13 A3004 RMK A01 T01960133  RH  067%=      5-min Rain = 0
KBR1 161204Z 04003KT 20/13 A3004 RMK A01 T01950132  RH  067%=      5-min Rain = 0
KBR1 161205Z 04003KT 19/13 A3004 RMK A01 T01940132  RH  067%=      5-min Rain = 0
KBR1 161206Z 04003KT 19/13 A3004 RMK A01 T01940132  RH  067%=      5-min Rain = 0
KBR1 161207Z 04003KT 20/13 A3004 RMK A01 T01950133  RH  067%=      5-min Rain = 0
KBR1 161208Z 04003KT 20/13 A3004 RMK A01 T01950132  RH  067%=      5-min Rain = 0
KBR1 161209Z 04003KT 20/13 A3004 RMK A01 T01950132  RH  067%=      5-min Rain = 0
KBR1 161210Z 03003KT 20/13 A3004 RMK A01 T01960132  RH  066%=      5-min Rain = 0
KBR1 161211Z 03002KT 20/13 A3004 RMK A01 T01970132  RH  066%=      5-min Rain = 0
KBR1 161212Z 03002KT 20/13 A3004 RMK A01 T01980132  RH  066%=      5-min Rain = 0
KBR1 161213Z 02002KT 20/13 A3004 RMK A01 T01990133  RH  065%=      5-min Rain = 0
KBR1 161214Z 02002KT 20/13 A3004 RMK A01 T02000133  RH  065%=      5-min Rain = 0
KBR1 161215Z 02002KT 20/13 A3004 RMK A01 T02000133  RH  065%=      5-min Rain = 0
KBR1 161216Z 01002KT 20/13 A3004 RMK A01 T02000133  RH  065%=      5-min Rain = 0
KBR1 161217Z 36003KT 20/13 A3004 RMK A01 T02010133  RH  065%=      5-min Rain = 0
KBR1 161218Z 35003KT 20/13 A3004 RMK A01 T02010133  RH  065%=      5-min Rain = 0
KBR1 161219Z 35004KT 20/13 A3004 RMK A01 T02010133  RH  065%=      5-min Rain = 0
KBR1 161220Z 35004KT 20/13 A3004 RMK A01 T02000134  RH  066%=      5-min Rain = 0
KBR1 161221Z 35004KT 20/13 A3004 RMK A01 T01990134  RH  066%=      5-min Rain = 0
KBR1 161222Z 35004KT 20/13 A3004 RMK A01 T01980134  RH  067%=      5-min Rain = 0
KBR1 161223Z 35003KT 20/13 A3004 RMK A01 T01960134  RH  067%=      5-min Rain = 0
KBR1 161224Z 36003KT 20/13 A3004 RMK A01 T01960134  RH  067%=      5-min Rain = 0
KBR1 161225Z 00003KT 20/13 A3004 RMK A01 T01960134  RH  067%=      5-min Rain = 0
KBR1 161226Z 00004KT 20/13 A3004 RMK A01 T01950134  RH  068%=      5-min Rain = 0
KBR1 161227Z 00003KT 20/13 A3004 RMK A01 T01950134  RH  068%=      5-min Rain = 0
KBR1 161228Z 01003KT 20/13 A3004 RMK A01 T01950134  RH  068%=      5-min Rain = 0
KBR1 161229Z 01003KT 20/13 A3004 RMK A01 T01950133  RH  068%=      5-min Rain = 0
KBR1 161230Z 02003KT 20/13 A3004 RMK A01 T01950133  RH  067%=      5-min Rain = 0
KBR1 161231Z 02003KT 20/13 A3004 RMK A01 T01950133  RH  067%=      5-min Rain = 0
KBR1 161232Z 03003KT 20/13 A3004 RMK A01 T01960133  RH  067%=      5-min Rain = 0
KBR1 161233Z 03003KT 20/13 A3004 RMK A01 T01960134  RH  067%=      5-min Rain = 0
KBR1 161234Z 02003KT 20/13 A3004 RMK A01 T01960134  RH  067%=      5-min Rain = 0
KBR1 161235Z 02003KT 20/14 A3004 RMK A01 T01960135  RH  067%=      5-min Rain = 0
KBR1 161236Z 02003KT 20/14 A3004 RMK A01 T01970135  RH  067%=      5-min Rain = 0
KBR1 161237Z 03003KT 20/14 A3004 RMK A01 T01970135  RH  067%=      5-min Rain = 0
KBR1 161238Z 03003KT 20/14 A3004 RMK A01 T01980135  RH  067%=      5-min Rain = 0
KBR1 161239Z 03003KT 20/14 A3004 RMK A01 T01990135  RH  066%=      5-min Rain = 0
KBR1 161240Z 02003KT 20/14 A3004 RMK A01 T02010135  RH  066%=      5-min Rain = 0
KBR1 161241Z 02003KT 20/14 A3004 RMK A01 T02020136  RH  065%=      5-min Rain = 0
KBR1 161242Z 02003KT 20/14 A3004 RMK A01 T02040136  RH  065%=      5-min Rain = 0
KBR1 161243Z 02003KT 21/14 A3005 RMK A01 T02060136  RH  064%=      5-min Rain = 0
KBR1 161244Z 02003KT 21/14 A3005 RMK A01 T02070136  RH  064%=      5-min Rain = 0
KBR1 161245Z 02003KT 21/14 A3005 RMK A01 T02090136  RH  063%=      5-min Rain = 0
KBR1 161246Z 02003KT 21/14 A3005 RMK A01 T02100137  RH  063%=      5-min Rain = 0
KBR1 161247Z 02003KT 21/14 A3005 RMK A01 T02110138  RH  063%=      5-min Rain = 0
KBR1 161248Z 03002KT 21/14 A3005 RMK A01 T02120138  RH  063%=      5-min Rain = 0
KBR1 161249Z 03002KT 21/14 A3005 RMK A01 T02130139  RH  063%=      5-min Rain = 0
KBR1 161250Z 03001KT 21/14 A3005 RMK A01 T02140139  RH  062%=      5-min Rain = 0
KBR1 161251Z 04001KT 22/14 A3005 RMK A01 T02150139  RH  062%=      5-min Rain = 0
KBR1 161252Z 04001KT 22/14 A3004 RMK A01 T02160140  RH  062%=      5-min Rain = 0
KBR1 161253Z 05002KT 22/14 A3004 RMK A01 T02170141  RH  062%=      5-min Rain = 0
KBR1 161254Z 05002KT 22/14 A3004 RMK A01 T02190138  RH  060%=      5-min Rain = 0
KBR1 161255Z 05002KT 22/14 A3004 RMK A01 T02210138  RH  059%=      5-min Rain = 0
KBR1 161256Z 06002KT 22/14 A3004 RMK A01 T02240137  RH  058%=      5-min Rain = 0
KBR1 161257Z 06002KT 23/14 A3004 RMK A01 T02270139  RH  057%=      5-min Rain = 0
KBR1 161258Z 07001KT 23/14 A3004 RMK A01 T02300140  RH  057%=      5-min Rain = 0
KBR1 161259Z 07001KT 23/14 A3004 RMK A01 T02320139  RH  056%=      5-min Rain = 0
KBR1 161300Z 06001KT 24/14 A3004 RMK A01 T02350139  RH  055%=      5-min Rain = 0
KBR1 161301Z 06001KT 24/14 A3004 RMK A01 T02370140  RH  055%=      5-min Rain = 0
KBR1 161302Z 06000KT 24/14 A3004 RMK A01 T02380142  RH  055%=      5-min Rain = 0
KBR1 161303Z 06000KT 24/14 A3004 RMK A01 T02400142  RH  054%=      5-min Rain = 0
KBR1 161304Z 00000KT 24/14 A3004 RMK A01 T02420141  RH  053%=      5-min Rain = 0
KBR1 161305Z 00000KT 24/14 A3004 RMK A01 T02440140  RH  052%=      5-min Rain = 0
KBR1 161306Z 00000KT 25/14 A3004 RMK A01 T02470142  RH  052%=      5-min Rain = 0
KBR1 161307Z 00000KT 25/14 A3004 RMK A01 T02490140  RH  051%=      5-min Rain = 0
KBR1 161308Z 13000KT 25/14 A3004 RMK A01 T02500138  RH  050%=      5-min Rain = 0
KBR1 161309Z 13001KT 25/14 A3004 RMK A01 T02510138  RH  050%=      5-min Rain = 0
KBR1 161310Z 15001KT 25/14 A3004 RMK A01 T02520139  RH  050%=      5-min Rain = 0
KBR1 161311Z 15001KT 25/14 A3004 RMK A01 T02530138  RH  049%=      5-min Rain = 0
KBR1 161312Z 17001KT 25/14 A3004 RMK A01 T02530137  RH  049%=      5-min Rain = 0
KBR1 161313Z 17002KT 25/13 A3004 RMK A01 T02530134  RH  048%=      5-min Rain = 0
KBR1 161314Z 20003KT 25/13 A3004 RMK A01 T02530134  RH  048%=      5-min Rain = 0
KBR1 161315Z 21003KT 25/14 A3004 RMK A01 T02520135  RH  048%=      5-min Rain = 0
KBR1 161316Z 19003KT 25/13 A3004 RMK A01 T02510133  RH  048%=      5-min Rain = 0
KBR1 161317Z 20004KT 25/13 A3005 RMK A01 T02510133  RH  048%=      5-min Rain = 0
KBR1 161318Z 20003KT 25/13 A3005 RMK A01 T02500133  RH  048%=      5-min Rain = 0
KBR1 161319Z 19004KT 25/13 A3005 RMK A01 T02500134  RH  048%=      5-min Rain = 0
KBR1 161320Z 20004KT 25/13 A3005 RMK A01 T02510132  RH  048%=      5-min Rain = 0
KBR1 161321Z 19004KT 25/13 A3005 RMK A01 T02510133  RH  048%=      5-min Rain = 0
KBR1 161322Z 19004KT 25/13 A3005 RMK A01 T02520134  RH  048%=      5-min Rain = 0
KBR1 161323Z 20003KT 25/14 A3005 RMK A01 T02530136  RH  048%=      5-min Rain = 0
KBR1 161324Z 20004KT 25/14 A3005 RMK A01 T02530136  RH  048%=      5-min Rain = 0
KBR1 161325Z 20005KT 25/13 A3005 RMK A01 T02540134  RH  047%=      5-min Rain = 0
KBR1 161326Z 19005KT 26/13 A3005 RMK A01 T02550134  RH  047%=      5-min Rain = 0
KBR1 161327Z 20005KT 26/13 A3005 RMK A01 T02560132  RH  046%=      5-min Rain = 0
KBR1 161328Z 20005KT 26/13 A3005 RMK A01 T02560134  RH  047%=      5-min Rain = 0
KBR1 161329Z 19004KT 26/13 A3005 RMK A01 T02570134  RH  047%=      5-min Rain = 0
KBR1 161330Z 19004KT 26/14 A3005 RMK A01 T02580137  RH  047%=      5-min Rain = 0
KBR1 161331Z 20004KT 26/14 A3005 RMK A01 T02590138  RH  047%=      5-min Rain = 0
KBR1 161332Z 20005KT 26/14 A3005 RMK A01 T02610136  RH  046%=      5-min Rain = 0
KBR1 161333Z 20005KT 26/13 A3005 RMK A01 T02630134  RH  045%=      5-min Rain = 0
KBR1 161334Z 17005KT 26/13 A3005 RMK A01 T02630134  RH  045%=      5-min Rain = 0
KBR1 161335Z 19007KT 26/13 A3005 RMK A01 T02640132  RH  044%=      5-min Rain = 0
KBR1 161336Z 18005KT 26/13 A3005 RMK A01 T02630131  RH  044%=      5-min Rain = 0
KBR1 161337Z 17006KT 26/13 A3005 RMK A01 T02630133  RH  045%=      5-min Rain = 0
KBR1 161338Z 19006KT 26/13 A3005 RMK A01 T02630131  RH  044%=      5-min Rain = 0
KBR1 161339Z 18006KT 26/13 A3005 RMK A01 T02630132  RH  044%=      5-min Rain = 0
KBR1 161340Z 19005KT 26/13 A3005 RMK A01 T02630134  RH  045%=      5-min Rain = 0
KBR1 161341Z 18005KT 26/13 A3005 RMK A01 T02640133  RH  044%=      5-min Rain = 0
KBR1 161342Z 19005KT 26/13 A3005 RMK A01 T02640134  RH  044%=      5-min Rain = 0
KBR1 161343Z 19006KT 27/13 A3005 RMK A01 T02650132  RH  044%=      5-min Rain = 0
KBR1 161344Z 19005KT 27/13 A3005 RMK A01 T02650134  RH  044%=      5-min Rain = 0
KBR1 161345Z 21006KT 27/13 A3006 RMK A01 T02660131  RH  043%=      5-min Rain = 0
KBR1 161346Z 21004KT 27/13 A3006 RMK A01 T02660131  RH  043%=      5-min Rain = 0
KBR1 161347Z 17004KT 27/13 A3006 RMK A01 T02670133  RH  044%=      5-min Rain = 0
KBR1 161348Z 18005KT 27/13 A3006 RMK A01 T02670133  RH  044%=      5-min Rain = 0
KBR1 161349Z 19006KT 27/13 A3006 RMK A01 T02670133  RH  043%=      5-min Rain = 0
KBR1 161350Z 20005KT 27/13 A3006 RMK A01 T02670132  RH  043%=      5-min Rain = 0
KBR1 161351Z 21005KT 27/13 A3006 RMK A01 T02660132  RH  044%=      5-min Rain = 0
KBR1 161352Z 21006KT 27/13 A3006 RMK A01 T02650132  RH  044%=      5-min Rain = 0
KBR1 161353Z 21005KT 26/13 A3006 RMK A01 T02630132  RH  044%=      5-min Rain = 0
KBR1 161354Z 20003KT 26/13 A3006 RMK A01 T02630133  RH  045%=      5-min Rain = 0
KBR1 161355Z 18005KT 26/13 A3006 RMK A01 T02630134  RH  045%=      5-min Rain = 0
KBR1 161356Z 20005KT 26/13 A3006 RMK A01 T02640134  RH  045%=      5-min Rain = 0
KBR1 161357Z 21004KT 27/13 A3006 RMK A01 T02650132  RH  044%=      5-min Rain = 0
KBR1 161358Z 19004KT 27/13 A3006 RMK A01 T02660134  RH  044%=      5-min Rain = 0
KBR1 161359Z 19004KT 27/13 A3006 RMK A01 T02680134  RH  043%=      5-min Rain = 0
KBR1 161400Z 21006KT 27/13 A3006 RMK A01 T02700134  RH  043%=      5-min Rain = 0
KBR1 161401Z 22005KT 27/13 A3006 RMK A01 T02710133  RH  043%=      5-min Rain = 0
KBR1 161402Z 20005KT 27/13 A3006 RMK A01 T02720134  RH  043%=      5-min Rain = 0
KBR1 161403Z 19005KT 27/14 A3006 RMK A01 T02730136  RH  043%=      5-min Rain = 0
KBR1 161404Z 21005KT 28/14 A3006 RMK A01 T02760137  RH  042%=      5-min Rain = 0
KBR1 161405Z 19005KT 28/14 A3006 RMK A01 T02780136  RH  042%=      5-min Rain = 0
KBR1 161406Z 20006KT 28/14 A3006 RMK A01 T02780136  RH  042%=      5-min Rain = 0
KBR1 161407Z 20006KT 28/14 A3006 RMK A01 T02780136  RH  041%=      5-min Rain = 0
KBR1 161408Z 22007KT 28/14 A3006 RMK A01 T02780136  RH  042%=      5-min Rain = 0
KBR1 161409Z 23005KT 28/14 A3006 RMK A01 T02760135  RH  042%=      5-min Rain = 0
KBR1 161410Z 20007KT 27/14 A3006 RMK A01 T02730136  RH  043%=      5-min Rain = 0
KBR1 161411Z 20007KT 27/14 A3006 RMK A01 T02720135  RH  043%=      5-min Rain = 0
KBR1 161412Z 20007KT 27/14 A3006 RMK A01 T02710135  RH  043%=      5-min Rain = 0
KBR1 161413Z 22006KT 27/14 A3006 RMK A01 T02710136  RH  043%=      5-min Rain = 0
KBR1 161414Z 22006KT 27/14 A3006 RMK A01 T02710136  RH  043%=      5-min Rain = 0
KBR1 161415Z 22006KT 27/14 A3006 RMK A01 T02720137  RH  043%=      5-min Rain = 0
KBR1 161416Z 20006KT 27/14 A3006 RMK A01 T02720136  RH  043%=      5-min Rain = 0
KBR1 161417Z 20005KT 27/14 A3006 RMK A01 T02720137  RH  043%=      5-min Rain = 0
KBR1 161418Z 20006KT 27/14 A3006 RMK A01 T02720138  RH  044%=      5-min Rain = 0
KBR1 161419Z 21006KT 27/14 A3006 RMK A01 T02720137  RH  043%=      5-min Rain = 0
KBR1 161420Z 20006KT 27/14 A3006 RMK A01 T02740138  RH  043%=      5-min Rain = 0
KBR1 161421Z 20006KT 27/14 A3006 RMK A01 T02720137  RH  043%=      5-min Rain = 0
KBR1 161422Z 21006KT 27/14 A3006 RMK A01 T02700138  RH  044%=      5-min Rain = 0
KBR1 161423Z 21006KT 27/14 A3006 RMK A01 T02700138  RH  044%=      5-min Rain = 0
KBR1 161424Z 21005KT 27/14 A3006 RMK A01 T02700138  RH  044%=      5-min Rain = 0
KBR1 161425Z 21004KT 27/14 A3006 RMK A01 T02730141  RH  044%=      5-min Rain = 0
KBR1 161426Z 22004KT 28/14 A3006 RMK A01 T02780143  RH  044%=      5-min Rain = 0
KBR1 161427Z 23005KT 28/14 A3006 RMK A01 T02810141  RH  042%=      5-min Rain = 0
KBR1 161428Z 23005KT 28/14 A3006 RMK A01 T02820141  RH  042%=      5-min Rain = 0
KBR1 161429Z 23005KT 28/14 A3007 RMK A01 T02830141  RH  042%=      5-min Rain = 0
KBR1 161430Z 23008KT 28/14 A3007 RMK A01 T02840139  RH  041%=      5-min Rain = 0
KBR1 161431Z 23007KT 28/14 A3007 RMK A01 T02840138  RH  041%=      5-min Rain = 0
KBR1 161432Z 22007KT 28/14 A3007 RMK A01 T02840138  RH  041%=      5-min Rain = 0
KBR1 161433Z 22009KT 28/14 A3007 RMK A01 T02840138  RH  041%=      5-min Rain = 0
KBR1 161434Z 23008KT 29/14 A3007 RMK A01 T02850137  RH  040%=      5-min Rain = 0
KBR1 161435Z 23008KT 28/14 A3007 RMK A01 T02830137  RH  041%=      5-min Rain = 0
KBR1 161436Z 23007KT 28/14 A3007 RMK A01 T02840139  RH  041%=      5-min Rain = 0
KBR1 161437Z 23009KT 28/14 A3007 RMK A01 T02840137  RH  040%=      5-min Rain = 0
KBR1 161438Z 22008KT 28/14 A3007 RMK A01 T02830137  RH  041%=      5-min Rain = 0
KBR1 161439Z 21006KT 28/14 A3007 RMK A01 T02820137  RH  041%=      5-min Rain = 0
KBR1 161440Z 23006KT 28/14 A3007 RMK A01 T02820138  RH  041%=      5-min Rain = 0
KBR1 161441Z 22007KT 28/14 A3007 RMK A01 T02820138  RH  041%=      5-min Rain = 0
KBR1 161442Z 22009KT 28/14 A3007 RMK A01 T02830139  RH  041%=      5-min Rain = 0
KBR1 161443Z 22008KT 28/14 A3007 RMK A01 T02840137  RH  041%=      5-min Rain = 0
KBR1 161444Z 23008KT 28/14 A3007 RMK A01 T02840138  RH  041%=      5-min Rain = 0
KBR1 161445Z 24008KT 29/14 A3007 RMK A01 T02850137  RH  040%=      5-min Rain = 0
KBR1 161446Z 23010KT 29/14 A3007 RMK A01 T02850138  RH  040%=      5-min Rain = 0
KBR1 161447Z 22007KT 29/14 A3007 RMK A01 T02860138  RH  040%=      5-min Rain = 0
KBR1 161448Z 23008KT 29/14 A3007 RMK A01 T02860139  RH  040%=      5-min Rain = 0
KBR1 161449Z 22009KT 29/14 A3007 RMK A01 T02860139  RH  040%=      5-min Rain = 0
KBR1 161450Z 20008KT 29/14 A3007 RMK A01 T02880138  RH  040%=      5-min Rain = 0
KBR1 161451Z 20011KT 29/14 A3006 RMK A01 T02900136  RH  039%=      5-min Rain = 0
KBR1 161452Z 22010KT 29/14 A3007 RMK A01 T02900137  RH  039%=      5-min Rain = 0
KBR1 161453Z 22009KT 29/14 A3007 RMK A01 T02900137  RH  039%=      5-min Rain = 0
KBR1 161454Z 20010KT 29/14 A3007 RMK A01 T02900136  RH  039%=      5-min Rain = 0
KBR1 161455Z 21008KT 29/14 A3007 RMK A01 T02890136  RH  039%=      5-min Rain = 0
KBR1 161456Z 22008KT 29/14 A3007 RMK A01 T02890138  RH  040%=      5-min Rain = 0
KBR1 161457Z 22007KT 29/14 A3007 RMK A01 T02920138  RH  039%=      5-min Rain = 0
KBR1 161458Z 23008KT 30/14 A3007 RMK A01 T02950138  RH  038%=      5-min Rain = 0
KBR1 161459Z 21009KT 30/14 A3007 RMK A01 T02950136  RH  038%=      5-min Rain = 0
KBR1 161500Z 21009KT 30/14 A3007 RMK A01 T02950136  RH  038%=      5-min Rain = 0
KBR1 161501Z 21008KT 29/13 A3007 RMK A01 T02940134  RH  038%=      5-min Rain = 0
KBR1 161502Z 21009KT 29/13 A3007 RMK A01 T02920134  RH  038%=      5-min Rain = 0
KBR1 161503Z 20008KT 29/14 A3007 RMK A01 T02910135  RH  038%=      5-min Rain = 0
KBR1 161504Z 20010KT 29/14 A3007 RMK A01 T02920135  RH  038%=      5-min Rain = 0
KBR1 161505Z 21009KT 29/14 A3007 RMK A01 T02930135  RH  038%=      5-min Rain = 0
KBR1 161506Z 21009KT 30/14 A3007 RMK A01 T02950135  RH  038%=      5-min Rain = 0
KBR1 161507Z 21007KT 29/14 A3007 RMK A01 T02930135  RH  038%=      5-min Rain = 0
KBR1 161508Z 21008KT 29/13 A3007 RMK A01 T02930133  RH  037%=      5-min Rain = 0
KBR1 161509Z 22008KT 30/13 A3007 RMK A01 T02950134  RH  037%=      5-min Rain = 0
KBR1 161510Z 23008KT 30/14 A3007 RMK A01 T02990136  RH  037%=      5-min Rain = 0
KBR1 161511Z 22009KT 30/13 A3007 RMK A01 T03010134  RH  036%=      5-min Rain = 0
KBR1 161512Z 22010KT 30/13 A3007 RMK A01 T03020134  RH  036%=      5-min Rain = 0
KBR1 161513Z 21010KT 30/13 A3007 RMK A01 T03020130  RH  035%=      5-min Rain = 0
KBR1 161514Z 21010KT 30/13 A3007 RMK A01 T03000129  RH  035%=      5-min Rain = 0
KBR1 161515Z 20009KT 30/13 A3007 RMK A01 T02990130  RH  035%=      5-min Rain = 0
KBR1 161516Z 21009KT 30/13 A3007 RMK A01 T02990133  RH  036%=      5-min Rain = 0
KBR1 161517Z 21010KT 30/13 A3007 RMK A01 T03010133  RH  036%=      5-min Rain = 0
KBR1 161518Z 23009KT 30/13 A3007 RMK A01 T03020131  RH  035%=      5-min Rain = 0
KBR1 161519Z 22008KT 30/13 A3007 RMK A01 T03030131  RH  035%=      5-min Rain = 0
KBR1 161520Z 21007KT 30/14 A3007 RMK A01 T03030135  RH  036%=      5-min Rain = 0
KBR1 161521Z 22007KT 30/14 A3007 RMK A01 T03030135  RH  036%=      5-min Rain = 0
KBR1 161522Z 21007KT 30/14 A3007 RMK A01 T03040136  RH  036%=      5-min Rain = 0
KBR1 161523Z 21007G12KT 30/14 A3007 RMK A01 T03030135  RH  036%=      5-min Rain = 0
KBR1 161524Z 22010KT 30/13 A3007 RMK A01 T03040134  RH  035%=      5-min Rain = 0
KBR1 161525Z 22010KT 30/13 A3007 RMK A01 T03040132  RH  035%=      5-min Rain = 0
KBR1 161526Z 22009KT 30/13 A3007 RMK A01 T03030133  RH  035%=      5-min Rain = 0
KBR1 161527Z 24007KT 30/14 A3007 RMK A01 T03020135  RH  036%=      5-min Rain = 0
KBR1 161528Z 25006KT 30/14 A3007 RMK A01 T03020137  RH  037%=      5-min Rain = 0
KBR1 161529Z 25006KT 30/14 A3007 RMK A01 T03030137  RH  036%=      5-min Rain = 0
KBR1 161530Z 25008KT 30/14 A3007 RMK A01 T03020136  RH  036%=      5-min Rain = 0
KBR1 161531Z 23008KT 30/13 A3007 RMK A01 T03030129  RH  035%=      5-min Rain = 0
KBR1 161532Z 23010KT 30/13 A3007 RMK A01 T03040131  RH  035%=      5-min Rain = 0
KBR1 161533Z 22009KT 31/13 A3007 RMK A01 T03050133  RH  035%=      5-min Rain = 0
KBR1 161534Z 20008KT 31/14 A3007 RMK A01 T03070135  RH  035%=      5-min Rain = 0
KBR1 161535Z 23007KT 31/14 A3007 RMK A01 T03080135  RH  035%=      5-min Rain = 0
KBR1 161536Z 22011KT 31/13 A3007 RMK A01 T03070133  RH  035%=      5-min Rain = 0
KBR1 161537Z 22009KT 31/13 A3007 RMK A01 T03080131  RH  034%=      5-min Rain = 0
KBR1 161538Z 22010KT 31/13 A3007 RMK A01 T03100131  RH  034%=      5-min Rain = 0
KBR1 161539Z 21007KT 31/13 A3007 RMK A01 T03100130  RH  033%=      5-min Rain = 0
KBR1 161540Z 21010KT 31/13 A3007 RMK A01 T03100134  RH  034%=      5-min Rain = 0
KBR1 161541Z 22009KT 31/14 A3007 RMK A01 T03130136  RH  034%=      5-min Rain = 0
KBR1 161542Z 23010KT 31/13 A3007 RMK A01 T03140134  RH  033%=      5-min Rain = 0
KBR1 161543Z 23010KT 31/13 A3007 RMK A01 T03140126  RH  032%=      5-min Rain = 0
KBR1 161544Z 22010KT 31/13 A3007 RMK A01 T03140128  RH  032%=      5-min Rain = 0
KBR1 161545Z 21014KT 32/13 A3006 RMK A01 T03150129  RH  032%=      5-min Rain = 0
KBR1 161546Z 23012KT 32/13 A3006 RMK A01 T03170126  RH  031%=      5-min Rain = 0
KBR1 161547Z 23010KT 32/13 A3006 RMK A01 T03170127  RH  031%=      5-min Rain = 0
KBR1 161548Z 22012KT 32/13 A3006 RMK A01 T03180130  RH  032%=      5-min Rain = 0
KBR1 161549Z 21013KT 32/13 A3006 RMK A01 T03200129  RH  031%=      5-min Rain = 0
KBR1 161550Z 22011KT 32/13 A3006 RMK A01 T03210131  RH  031%=      5-min Rain = 0
KBR1 161551Z 21012KT 32/13 A3006 RMK A01 T03220129  RH  031%=      5-min Rain = 0
KBR1 161552Z 22013KT 32/13 A3006 RMK A01 T03210127  RH  031%=      5-min Rain = 0
KBR1 161553Z 23013KT 32/13 A3006 RMK A01 T03180126  RH  031%=      5-min Rain = 0
KBR1 161554Z 22011KT 32/13 A3006 RMK A01 T03150126  RH  032%=      5-min Rain = 0
KBR1 161555Z 21014KT 32/13 A3006 RMK A01 T03160128  RH  032%=      5-min Rain = 0
KBR1 161556Z 22014KT 32/13 A3006 RMK A01 T03190127  RH  031%=      5-min Rain = 0
KBR1 161557Z 24013G18KT 32/13 A3006 RMK A01 T03190128  RH  031%=      5-min Rain = 0
KBR1 161558Z 24014KT 32/13 A3006 RMK A01 T03210128  RH  031%=      5-min Rain = 0
KBR1 161559Z 23016G21KT 32/13 A3006 RMK A01 T03200128  RH  031%=      5-min Rain = 0
KBR1 161600Z 22012KT 32/13 A3006 RMK A01 T03190128  RH  031%=      5-min Rain = 0
KBR1 161601Z 23013KT 32/13 A3006 RMK A01 T03200129  RH  031%=      5-min Rain = 0
KBR1 161602Z 24012KT 32/13 A3006 RMK A01 T03190126  RH  031%=      5-min Rain = 0
KBR1 161603Z 23012KT 32/13 A3006 RMK A01 T03170127  RH  031%=      5-min Rain = 0
KBR1 161604Z 22012KT 32/13 A3006 RMK A01 T03200129  RH  031%=      5-min Rain = 0
KBR1 161605Z 21012KT 32/13 A3006 RMK A01 T03210128  RH  031%=      5-min Rain = 0
KBR1 161606Z 22012KT 32/13 A3006 RMK A01 T03230129  RH  031%=      5-min Rain = 0
KBR1 161607Z 22012KT 32/13 A3006 RMK A01 T03230129  RH  031%=      5-min Rain = 0
KBR1 161608Z 22013KT 33/13 A3006 RMK A01 T03260129  RH  030%=      5-min Rain = 0
KBR1 161609Z 21015KT 33/13 A3006 RMK A01 T03260129  RH  030%=      5-min Rain = 0
KBR1 161610Z 23015KT 32/13 A3006 RMK A01 T03240126  RH  030%=      5-min Rain = 0
KBR1 161611Z 23013KT 32/13 A3006 RMK A01 T03210127  RH  031%=      5-min Rain = 0
KBR1 161612Z 23014KT 32/13 A3006 RMK A01 T03230127  RH  030%=      5-min Rain = 0
KBR1 161613Z 23014KT 32/13 A3006 RMK A01 T03230127  RH  030%=      5-min Rain = 0
KBR1 161614Z 23014KT 32/13 A3006 RMK A01 T03210128  RH  031%=      5-min Rain = 0
KBR1 161615Z 22012KT 32/13 A3006 RMK A01 T03200129  RH  031%=      5-min Rain = 0
KBR1 161616Z 23010KT 32/13 A3006 RMK A01 T03230129  RH  031%=      5-min Rain = 0
KBR1 161617Z 23015KT 33/13 A3006 RMK A01 T03250129  RH  030%=      5-min Rain = 0
KBR1 161618Z 22014KT 32/13 A3006 RMK A01 T03220128  RH  031%=      5-min Rain = 0
KBR1 161619Z 22016KT 33/13 A3006 RMK A01 T03260128  RH  030%=      5-min Rain = 0
KBR1 161620Z 23015KT 33/13 A3006 RMK A01 T03290125  RH  029%=      5-min Rain = 0
KBR1 161621Z 24013G19KT 32/12 A3006 RMK A01 T03240124  RH  030%=      5-min Rain = 0
KBR1 161622Z 23018KT 32/13 A3006 RMK A01 T03220125  RH  030%=      5-min Rain = 0
KBR1 161623Z 23016KT 32/12 A3006 RMK A01 T03230124  RH  030%=      5-min Rain = 0
KBR1 161624Z 24013G18KT 32/13 A3006 RMK A01 T03240126  RH  030%=      5-min Rain = 0
KBR1 161625Z 22015KT 33/13 A3006 RMK A01 T03270127  RH  030%=      5-min Rain = 0
KBR1 161626Z 23016KT 33/13 A3006 RMK A01 T03270127  RH  030%=      5-min Rain = 0
KBR1 161627Z 20012KT 33/13 A3006 RMK A01 T03250129  RH  030%=      5-min Rain = 0
KBR1 161628Z 21013KT 33/13 A3006 RMK A01 T03250129  RH  030%=      5-min Rain = 0
KBR1 161629Z 22012KT 33/13 A3006 RMK A01 T03260132  RH  031%=      5-min Rain = 0
KBR1 161630Z 22010KT 33/13 A3006 RMK A01 T03320133  RH  030%=      5-min Rain = 0
KBR1 161631Z 21014KT 33/13 A3006 RMK A01 T03320133  RH  030%=      5-min Rain = 0
KBR1 161632Z 22014KT 33/13 A3006 RMK A01 T03320132  RH  030%=      5-min Rain = 0
KBR1 161633Z 21014KT 33/13 A3006 RMK A01 T03290133  RH  030%=      5-min Rain = 0
KBR1 161634Z 22013KT 33/13 A3006 RMK A01 T03290132  RH  030%=      5-min Rain = 0
KBR1 161635Z 22016KT 33/13 A3006 RMK A01 T03290133  RH  031%=      5-min Rain = 0
KBR1 161636Z 21014KT 33/13 A3006 RMK A01 T03290133  RH  030%=      5-min Rain = 0
KBR1 161637Z 23010KT 33/13 A3006 RMK A01 T03270132  RH  031%=      5-min Rain = 0
KBR1 161638Z 19013G18KT 33/13 A3006 RMK A01 T03270134  RH  031%=      5-min Rain = 0
KBR1 161639Z 19016KT 33/13 A3006 RMK A01 T03320132  RH  030%=      5-min Rain = 0
KBR1 161640Z 22013KT 33/13 A3006 RMK A01 T03320133  RH  030%=      5-min Rain = 0
KBR1 161641Z 23012KT 33/13 A3006 RMK A01 T03310133  RH  030%=      5-min Rain = 0
KBR1 161642Z 22009KT 33/13 A3006 RMK A01 T03290132  RH  030%=      5-min Rain = 0
KBR1 161643Z 23011KT 33/14 A3006 RMK A01 T03290135  RH  031%=      5-min Rain = 0
KBR1 161644Z 20012G17KT 33/14 A3006 RMK A01 T03320135  RH  030%=      5-min Rain = 0
KBR1 161645Z 23014G19KT 33/13 A3006 RMK A01 T03340132  RH  030%=      5-min Rain = 0
KBR1 161646Z 22017G23KT 33/13 A3006 RMK A01 T03330130  RH  029%=      5-min Rain = 0
KBR1 161647Z 22016KT 33/13 A3006 RMK A01 T03330127  RH  029%=      5-min Rain = 0
KBR1 161648Z 22016KT 33/13 A3006 RMK A01 T03320128  RH  029%=      5-min Rain = 0
KBR1 161649Z 22015KT 33/13 A3006 RMK A01 T03310128  RH  029%=      5-min Rain = 0
KBR1 161650Z 22019KT 33/13 A3006 RMK A01 T03300128  RH  029%=      5-min Rain = 0
KBR1 161651Z 22015KT 33/13 A3006 RMK A01 T03310128  RH  029%=      5-min Rain = 0
KBR1 161652Z 23012KT 33/13 A3006 RMK A01 T03310128  RH  029%=      5-min Rain = 0
KBR1 161653Z 23009KT 33/13 A3006 RMK A01 T03300130  RH  030%=      5-min Rain = 0
KBR1 161654Z 22010KT 33/13 A3006 RMK A01 T03320130  RH  029%=      5-min Rain = 0
KBR1 161655Z 21012KT 34/13 A3005 RMK A01 T03350128  RH  029%=      5-min Rain = 0
KBR1 161656Z 24011KT 34/13 A3005 RMK A01 T03380132  RH  029%=      5-min Rain = 0
KBR1 161657Z 24013KT 34/13 A3006 RMK A01 T03380134  RH  029%=      5-min Rain = 0
KBR1 161658Z 22009KT 34/13 A3006 RMK A01 T03350131  RH  029%=      5-min Rain = 0
KBR1 161659Z 22010KT 34/13 A3005 RMK A01 T03380133  RH  029%=      5-min Rain = 0
KBR1 161700Z 22013KT 34/14 A3005 RMK A01 T03430135  RH  028%=      5-min Rain = 0
KBR1 161701Z 22016KT 35/13 A3005 RMK A01 T03450132  RH  028%=      5-min Rain = 0
KBR1 161702Z 23016KT 34/13 A3006 RMK A01 T03430130  RH  028%=      5-min Rain = 0
KBR1 161703Z 23013KT 34/13 A3006 RMK A01 T03370128  RH  028%=      5-min Rain = 0
KBR1 161704Z 24016KT 33/13 A3006 RMK A01 T03340125  RH  028%=      5-min Rain = 0
KBR1 161705Z 24016KT 33/13 A3006 RMK A01 T03300125  RH  029%=      5-min Rain = 0
KBR1 161706Z 22014KT 33/13 A3006 RMK A01 T03290125  RH  029%=      5-min Rain = 0
KBR1 161707Z 24014KT 33/13 A3006 RMK A01 T03300128  RH  029%=      5-min Rain = 0
KBR1 161708Z 24015KT 33/13 A3006 RMK A01 T03330127  RH  029%=      5-min Rain = 0
KBR1 161709Z 23015KT 33/13 A3006 RMK A01 T03330127  RH  029%=      5-min Rain = 0
KBR1 161710Z 22012KT 33/13 A3006 RMK A01 T03330127  RH  029%=      5-min Rain = 0
KBR1 161711Z 23017KT 33/13 A3006 RMK A01 T03330126  RH  028%=      5-min Rain = 0
KBR1 161712Z 23016KT 33/13 A3006 RMK A01 T03340125  RH  028%=      5-min Rain = 0
KBR1 161713Z 23015KT 34/13 A3006 RMK A01 T03360125  RH  028%=      5-min Rain = 0
KBR1 161714Z 22018KT 34/13 A3006 RMK A01 T03390126  RH  028%=      5-min Rain = 0
KBR1 161715Z 22015KT 34/13 A3006 RMK A01 T03390126  RH  028%=      5-min Rain = 0
KBR1 161716Z 21015G21KT 34/13 A3005 RMK A01 T03370125  RH  028%=      5-min Rain = 0
KBR1 161717Z 21017KT 34/13 A3005 RMK A01 T03350125  RH  028%=      5-min Rain = 0
KBR1 161718Z 22012KT 34/13 A3005 RMK A01 T03350126  RH  028%=      5-min Rain = 0
KBR1 161719Z 21015G20KT 34/13 A3005 RMK A01 T03370128  RH  028%=      5-min Rain = 0
KBR1 161720Z 22014G19KT 34/13 A3005 RMK A01 T03390129  RH  028%=      5-min Rain = 0
KBR1 161721Z 22017KT 34/13 A3005 RMK A01 T03400129  RH  028%=      5-min Rain = 0
KBR1 161722Z 21014KT 34/13 A3005 RMK A01 T03400129  RH  028%=      5-min Rain = 0
KBR1 161723Z 22013KT 34/13 A3005 RMK A01 T03410131  RH  028%=      5-min Rain = 0
KBR1 161724Z 23014KT 34/13 A3005 RMK A01 T03430132  RH  028%=      5-min Rain = 0
KBR1 161725Z 22017KT 34/13 A3005 RMK A01 T03430132  RH  028%=      5-min Rain = 0
KBR1 161726Z 21012KT 34/13 A3005 RMK A01 T03430132  RH  028%=      5-min Rain = 0
KBR1 161727Z 22013KT 34/13 A3005 RMK A01 T03410132  RH  028%=      5-min Rain = 0
KBR1 161728Z 22013G18KT 34/13 A3005 RMK A01 T03410133  RH  029%=      5-min Rain = 0
KBR1 161729Z 23018KT 35/14 A3005 RMK A01 T03470136  RH  028%=      5-min Rain = 0
KBR1 161730Z 22016KT 35/13 A3005 RMK A01 T03480133  RH  027%=      5-min Rain = 0
KBR1 161731Z 22016KT 35/13 A3005 RMK A01 T03450134  RH  028%=      5-min Rain = 0
KBR1 161732Z 21013KT 35/13 A3005 RMK A01 T03480134  RH  028%=      5-min Rain = 0
KBR1 161733Z 23014KT 35/14 A3005 RMK A01 T03500135  RH  027%=      5-min Rain = 0
KBR1 161734Z 23014KT 35/14 A3006 RMK A01 T03480135  RH  028%=      5-min Rain = 0
KBR1 161735Z 22013G19KT 35/14 A3005 RMK A01 T03470135  RH  028%=      5-min Rain = 0
KBR1 161736Z 22015G20KT 35/13 A3005 RMK A01 T03460134  RH  028%=      5-min Rain = 0
KBR1 161737Z 23013KT 35/13 A3005 RMK A01 T03460134  RH  028%=      5-min Rain = 0
KBR1 161738Z 23014KT 34/13 A3005 RMK A01 T03440134  RH  028%=      5-min Rain = 0
KBR1 161739Z 23020KT 35/14 A3005 RMK A01 T03480135  RH  028%=      5-min Rain = 0
KBR1 161740Z 23017G22KT 35/13 A3005 RMK A01 T03470132  RH  027%=      5-min Rain = 0
KBR1 161741Z 23013KT 34/14 A3005 RMK A01 T03420135  RH  029%=      5-min Rain = 0
KBR1 161742Z 23017KT 35/14 A3005 RMK A01 T03470136  RH  028%=      5-min Rain = 0
KBR1 161743Z 21015KT 35/13 A3005 RMK A01 T03490133  RH  027%=      5-min Rain = 0
KBR1 161744Z 21012KT 34/13 A3005 RMK A01 T03440131  RH  028%=      5-min Rain = 0
KBR1 161745Z 23017KT 35/14 A3005 RMK A01 T03460136  RH  028%=      5-min Rain = 0
KBR1 161746Z 23015KT 35/14 A3005 RMK A01 T03520137  RH  028%=      5-min Rain = 0
KBR1 161747Z 23012G21KT 35/14 A3005 RMK A01 T03500135  RH  027%=      5-min Rain = 0
KBR1 161748Z 23016KT 35/14 A3005 RMK A01 T03470135  RH  028%=      5-min Rain = 0
KBR1 161749Z 23019KT 35/13 A3005 RMK A01 T03490134  RH  028%=      5-min Rain = 0
KBR1 161750Z 23017G22KT 35/13 A3005 RMK A01 T03480134  RH  028%=      5-min Rain = 0
KBR1 161751Z 23021KT 35/14 A3005 RMK A01 T03490136  RH  028%=      5-min Rain = 0
KBR1 161752Z 23019KT 35/14 A3005 RMK A01 T03520136  RH  027%=      5-min Rain = 0
KBR1 161753Z 20016KT 35/14 A3005 RMK A01 T03510136  RH  028%=      5-min Rain = 0
KBR1 161754Z 22011KT 35/14 A3005 RMK A01 T03510138  RH  028%=      5-min Rain = 0
KBR1 161755Z 22013KT 36/14 A3005 RMK A01 T03560140  RH  027%=      5-min Rain = 0
KBR1 161756Z 22016KT 36/14 A3005 RMK A01 T03570138  RH  027%=      5-min Rain = 0
KBR1 161757Z 22017KT 35/14 A3005 RMK A01 T03540135  RH  027%=      5-min Rain = 0
KBR1 161758Z 20014KT 36/14 A3005 RMK A01 T03560137  RH  027%=      5-min Rain = 0
KBR1 161759Z 20015KT 36/14 A3005 RMK A01 T03570136  RH  027%=      5-min Rain = 0
KBR1 161800Z 21012KT 35/14 A3004 RMK A01 T03520136  RH  028%=      5-min Rain = 0
KBR1 161801Z 22013G19KT 35/14 A3004 RMK A01 T03530140  RH  028%=      5-min Rain = 0
KBR1 161802Z 22019KT 36/14 A3004 RMK A01 T03560140  RH  027%=      5-min Rain = 0
KBR1 161803Z 20014KT 35/14 A3004 RMK A01 T03540137  RH  027%=      5-min Rain = 0
KBR1 161804Z 21012KT 35/14 A3004 RMK A01 T03490136  RH  028%=      5-min Rain = 0
KBR1 161805Z 24013G20KT 35/14 A3004 RMK A01 T03490139  RH  028%=      5-min Rain = 0
KBR1 161806Z 23014KT 36/14 A3004 RMK A01 T03550141  RH  028%=      5-min Rain = 0
KBR1 161807Z 23016KT 36/14 A3004 RMK A01 T03610141  RH  027%=      5-min Rain = 0
KBR1 161808Z 23015G22KT 36/14 A3004 RMK A01 T03580138  RH  027%=      5-min Rain = 0
KBR1 161809Z 21014G22KT 36/14 A3004 RMK A01 T03560135  RH  027%=      5-min Rain = 0
KBR1 161810Z 23018G24KT 35/14 A3004 RMK A01 T03540135  RH  027%=      5-min Rain = 0
KBR1 161811Z 22019KT 36/13 A3004 RMK A01 T03570134  RH  026%=      5-min Rain = 0
KBR1 161812Z 20015KT 36/13 A3004 RMK A01 T03580134  RH  026%=      5-min Rain = 0
KBR1 161813Z 21015KT 36/14 A3004 RMK A01 T03570135  RH  026%=      5-min Rain = 0
KBR1 161814Z 20013KT 36/14 A3004 RMK A01 T03580135  RH  026%=      5-min Rain = 0
KBR1 161815Z 22015G21KT 35/14 A3004 RMK A01 T03530135  RH  027%=      5-min Rain = 0
KBR1 161816Z 23017KT 36/14 A3004 RMK A01 T03570137  RH  027%=      5-min Rain = 0
KBR1 161817Z 23012KT 36/14 A3004 RMK A01 T03570136  RH  027%=      5-min Rain = 0
KBR1 161818Z 22012KT 36/14 A3004 RMK A01 T03580139  RH  027%=      5-min Rain = 0
KBR1 161819Z 22011KT 36/14 A3004 RMK A01 T03570136  RH  027%=      5-min Rain = 0
KBR1 161820Z 22013G18KT 35/14 A3004 RMK A01 T03540136  RH  027%=      5-min Rain = 0
KBR1 161821Z 21014KT 35/13 A3004 RMK A01 T03510134  RH  027%=      5-min Rain = 0
KBR1 161822Z 21021KT 35/13 A3004 RMK A01 T03520134  RH  027%=      5-min Rain = 0
KBR1 161823Z 21015G23KT 35/13 A3004 RMK A01 T03520130  RH  026%=      5-min Rain = 0
KBR1 161824Z 22014KT 35/13 A3004 RMK A01 T03500130  RH  027%=      5-min Rain = 0
KBR1 161825Z 21018G24KT 35/13 A3003 RMK A01 T03530131  RH  026%=      5-min Rain = 0
KBR1 161826Z 21017G24KT 35/13 A3004 RMK A01 T03540130  RH  026%=      5-min Rain = 0
KBR1 161827Z 22011G16KT 35/13 A3004 RMK A01 T03510128  RH  026%=      5-min Rain = 0
KBR1 161828Z 23016KT 35/13 A3003 RMK A01 T03520128  RH  026%=      5-min Rain = 0
KBR1 161829Z 23019KT 36/13 A3003 RMK A01 T03570127  RH  025%=      5-min Rain = 0
KBR1 161830Z 22017KT 36/13 A3003 RMK A01 T03550127  RH  025%=      5-min Rain = 0
KBR1 161831Z 23012KT 35/13 A3003 RMK A01 T03530130  RH  026%=      5-min Rain = 0
KBR1 161832Z 23017KT 36/13 A3003 RMK A01 T03560130  RH  026%=      5-min Rain = 0
KBR1 161833Z 23019KT 36/13 A3003 RMK A01 T03570130  RH  026%=      5-min Rain = 0
KBR1 161834Z 21020KT 36/13 A3003 RMK A01 T03590129  RH  025%=      5-min Rain = 0
KBR1 161835Z 20016KT 36/13 A3003 RMK A01 T03560125  RH  025%=      5-min Rain = 0
KBR1 161836Z 20014KT 35/12 A3003 RMK A01 T03530122  RH  025%=      5-min Rain = 0
KBR1 161837Z 20016KT 35/12 A3003 RMK A01 T03540119  RH  024%=      5-min Rain = 0
KBR1 161838Z 19018G24KT 36/12 A3003 RMK A01 T03580121  RH  024%=      5-min Rain = 0
KBR1 161839Z 19020KT 36/13 A3003 RMK A01 T03620126  RH  024%=      5-min Rain = 0
KBR1 161840Z 20018KT 36/13 A3003 RMK A01 T03630126  RH  024%=      5-min Rain = 0
KBR1 161841Z 23015KT 36/13 A3003 RMK A01 T03640126  RH  024%=      5-min Rain = 0
KBR1 161842Z 23011KT 36/12 A3003 RMK A01 T03600123  RH  024%=      5-min Rain = 0
KBR1 161843Z 21014KT 36/13 A3003 RMK A01 T03550126  RH  025%=      5-min Rain = 0
KBR1 161844Z 22013KT 36/13 A3002 RMK A01 T03560129  RH  026%=      5-min Rain = 0
KBR1 161845Z 20014KT 36/13 A3002 RMK A01 T03570131  RH  026%=      5-min Rain = 0
KBR1 161846Z 23014KT 36/13 A3002 RMK A01 T03600134  RH  026%=      5-min Rain = 0
KBR1 161847Z 23016KT 36/13 A3002 RMK A01 T03620134  RH  026%=      5-min Rain = 0
KBR1 161848Z 24016KT 36/13 A3003 RMK A01 T03620132  RH  025%=      5-min Rain = 0
KBR1 161849Z 24014KT 36/13 A3002 RMK A01 T03570133  RH  026%=      5-min Rain = 0
KBR1 161850Z 22011KT 36/14 A3002 RMK A01 T03560136  RH  027%=      5-min Rain = 0
KBR1 161851Z 22013G18KT 36/14 A3002 RMK A01 T03630138  RH  026%=      5-min Rain = 0
KBR1 161852Z 22013KT 37/14 A3002 RMK A01 T03680136  RH  025%=      5-min Rain = 0
KBR1 161853Z 23021G26KT 37/13 A3002 RMK A01 T03660132  RH  025%=      5-min Rain = 0
KBR1 161854Z 22017G22KT 36/13 A3002 RMK A01 T03630129  RH  025%=      5-min Rain = 0
KBR1 161855Z 23013KT 36/13 A3002 RMK A01 T03600127  RH  025%=      5-min Rain = 0
KBR1 161856Z 22015KT 36/13 A3002 RMK A01 T03580130  RH  026%=      5-min Rain = 0
KBR1 161857Z 22012KT 36/13 A3002 RMK A01 T03600132  RH  025%=      5-min Rain = 0
KBR1 161858Z 21018KT 36/14 A3002 RMK A01 T03640135  RH  025%=      5-min Rain = 0
KBR1 161859Z 22020KT 37/13 A3002 RMK A01 T03650134  RH  025%=      5-min Rain = 0
KBR1 161900Z 22022KT 36/13 A3002 RMK A01 T03620132  RH  025%=      5-min Rain = 0
KBR1 161901Z 23018G23KT 36/13 A3002 RMK A01 T03610132  RH  025%=      5-min Rain = 0
KBR1 161902Z 22015KT 36/13 A3002 RMK A01 T03590132  RH  026%=      5-min Rain = 0
KBR1 161903Z 21011KT 36/14 A3002 RMK A01 T03620135  RH  026%=      5-min Rain = 0
KBR1 161904Z 21009KT 36/13 A3002 RMK A01 T03630132  RH  025%=      5-min Rain = 0
KBR1 161905Z 22015G24KT 36/13 A3002 RMK A01 T03600133  RH  026%=      5-min Rain = 0
KBR1 161906Z 22016KT 36/13 A3002 RMK A01 T03640132  RH  025%=      5-min Rain = 0
KBR1 161907Z 23017KT 37/13 A3002 RMK A01 T03650129  RH  024%=      5-min Rain = 0
KBR1 161908Z 23018KT 37/13 A3002 RMK A01 T03650133  RH  025%=      5-min Rain = 0
KBR1 161909Z 23017KT 37/13 A3001 RMK A01 T03650132  RH  025%=      5-min Rain = 0
KBR1 161910Z 22014KT 37/13 A3002 RMK A01 T03650134  RH  025%=      5-min Rain = 0
KBR1 161911Z 19018KT 37/13 A3001 RMK A01 T03680134  RH  025%=      5-min Rain = 0
KBR1 161912Z 18015KT 37/13 A3002 RMK A01 T03700129  RH  024%=      5-min Rain = 0
KBR1 161913Z 18015G20KT 37/13 A3001 RMK A01 T03670130  RH  024%=      5-min Rain = 0
KBR1 161914Z 19013G18KT 36/13 A3001 RMK A01 T03620132  RH  025%=      5-min Rain = 0
KBR1 161915Z 18015KT 36/13 A3001 RMK A01 T03630130  RH  025%=      5-min Rain = 0
KBR1 161916Z 20009KT 36/13 A3001 RMK A01 T03620133  RH  025%=      5-min Rain = 0
KBR1 161917Z 20009KT 36/13 A3001 RMK A01 T03630134  RH  025%=      5-min Rain = 0
KBR1 161918Z 20020KT 37/14 A3001 RMK A01 T03650135  RH  025%=      5-min Rain = 0
KBR1 161919Z 20020KT 37/13 A3001 RMK A01 T03690134  RH  024%=      5-min Rain = 0
KBR1 161920Z 19016KT 37/13 A3001 RMK A01 T03670132  RH  025%=      5-min Rain = 0
KBR1 161921Z 20012G17KT 37/13 A3001 RMK A01 T03650132  RH  025%=      5-min Rain = 0
KBR1 161922Z 18007KT 36/13 A3001 RMK A01 T03640133  RH  025%=      5-min Rain = 0
KBR1 161923Z 19006KT 36/13 A3001 RMK A01 T03640133  RH  025%=      5-min Rain = 0
KBR1 161924Z 21011KT 37/14 A3001 RMK A01 T03670136  RH  025%=      5-min Rain = 0
KBR1 161925Z 21012G17KT 37/13 A3001 RMK A01 T03680134  RH  025%=      5-min Rain = 0
KBR1 161926Z 20013KT 37/13 A3001 RMK A01 T03650132  RH  025%=      5-min Rain = 0
KBR1 161927Z 22017KT 37/14 A3001 RMK A01 T03670135  RH  025%=      5-min Rain = 0
KBR1 161928Z 22014KT 37/13 A3001 RMK A01 T03710131  RH  024%=      5-min Rain = 0
KBR1 161929Z 23011KT 37/13 A3001 RMK A01 T03670129  RH  024%=      5-min Rain = 0
KBR1 161930Z 24014G19KT 36/13 A3001 RMK A01 T03640130  RH  025%=      5-min Rain = 0
KBR1 161931Z 22018KT 37/13 A3001 RMK A01 T03680131  RH  024%=      5-min Rain = 0
KBR1 161932Z 22015KT 37/13 A30 RMK A01 T03710131  RH  024%=      5-min Rain = 0
KBR1 161933Z 23012KT 37/13 A30 RMK A01 T03710130  RH  024%=      5-min Rain = 0
KBR1 161934Z 22011KT 37/13 A30 RMK A01 T03670128  RH  024%=      5-min Rain = 0
KBR1 161935Z 23015G21KT 37/13 A30 RMK A01 T03680131  RH  024%=      5-min Rain = 0
KBR1 161936Z 22020KT 37/13 A30 RMK A01 T03740130  RH  023%=      5-min Rain = 0
KBR1 161937Z 21016KT 38/13 A30 RMK A01 T03750130  RH  023%=      5-min Rain = 0
KBR1 161938Z 22014KT 38/13 A30 RMK A01 T03770127  RH  023%=      5-min Rain = 0
KBR1 161939Z 22016KT 37/13 A30 RMK A01 T03730126  RH  023%=      5-min Rain = 0
KBR1 161940Z 21019G26KT 38/13 A30 RMK A01 T03760128  RH  023%=      5-min Rain = 0
KBR1 161941Z 21021KT 38/13 A30 RMK A01 T03780126  RH  022%=      5-min Rain = 0
KBR1 161942Z 20017G22KT 38/13 A30 RMK A01 T03770126  RH  022%=      5-min Rain = 0
KBR1 161943Z 20014G20KT 38/13 A30 RMK A01 T03750126  RH  023%=      5-min Rain = 0
KBR1 161944Z 18015KT 38/13 A30 RMK A01 T03770125  RH  022%=      5-min Rain = 0
KBR1 161945Z 18011KT 37/12 A30 RMK A01 T03700124  RH  023%=      5-min Rain = 0
KBR1 161946Z 18011KT 37/12 A2999 RMK A01 T03690124  RH  023%=      5-min Rain = 0
KBR1 161947Z 19015G25KT 37/13 A2999 RMK A01 T03710126  RH  023%=      5-min Rain = 0
KBR1 161948Z 20021KT 38/13 A2999 RMK A01 T03750126  RH  023%=      5-min Rain = 0
KBR1 161949Z 20014G20KT 38/12 A2999 RMK A01 T03750123  RH  022%=      5-min Rain = 0
KBR1 161950Z 21013G26KT 37/12 A2999 RMK A01 T03680122  RH  023%=      5-min Rain = 0
KBR1 161951Z 21024KT 37/12 A2999 RMK A01 T03710123  RH  023%=      5-min Rain = 0
KBR1 161952Z 21021KT 37/12 A2999 RMK A01 T03740124  RH  022%=      5-min Rain = 0
KBR1 161953Z 21022KT 38/12 A2999 RMK A01 T03750123  RH  022%=      5-min Rain = 0
KBR1 161954Z 20021G26KT 38/12 A2999 RMK A01 T03760124  RH  022%=      5-min Rain = 0
KBR1 161955Z 19016G22KT 38/12 A2999 RMK A01 T03750123  RH  022%=      5-min Rain = 0
KBR1 161956Z 19017KT 37/12 A2999 RMK A01 T03720123  RH  022%=      5-min Rain = 0
KBR1 161957Z 21021G29KT 38/13 A2999 RMK A01 T03750125  RH  022%=      5-min Rain = 0
KBR1 161958Z 21020KT 38/12 A2999 RMK A01 T03790122  RH  022%=      5-min Rain = 0
KBR1 161959Z 23017KT 38/12 A2999 RMK A01 T03750121  RH  022%=      5-min Rain = 0
KBR1 162000Z 22020KT 38/12 A2999 RMK A01 T03750121  RH  022%=      5-min Rain = 0
KBR1 162001Z 21019G24KT 38/12 A2999 RMK A01 T03770121  RH  022%=      5-min Rain = 0
KBR1 162002Z 22020KT 38/12 A2999 RMK A01 T03810122  RH  021%=      5-min Rain = 0
KBR1 162003Z 21017KT 38/12 A2999 RMK A01 T03790119  RH  021%=      5-min Rain = 0
KBR1 162004Z 21018KT 38/12 A2999 RMK A01 T03760121  RH  022%=      5-min Rain = 0
KBR1 162005Z 22016KT 38/12 A2999 RMK A01 T03790122  RH  022%=      5-min Rain = 0
KBR1 162006Z 22021G27KT 38/12 A2998 RMK A01 T03800124  RH  022%=      5-min Rain = 0
KBR1 162007Z 22023KT 38/12 A2998 RMK A01 T03820122  RH  021%=      5-min Rain = 0
KBR1 162008Z 22019KT 38/12 A2999 RMK A01 T03790120  RH  021%=      5-min Rain = 0
KBR1 162009Z 21018KT 38/12 A2998 RMK A01 T03780121  RH  022%=      5-min Rain = 0
KBR1 162010Z 22012KT 38/12 A2998 RMK A01 T03760120  RH  022%=      5-min Rain = 0
KBR1 162011Z 21012KT 38/12 A2998 RMK A01 T03750121  RH  022%=      5-min Rain = 0
KBR1 162012Z 23016KT 37/12 A2998 RMK A01 T03740120  RH  022%=      5-min Rain = 0
KBR1 162013Z 22018KT 37/12 A2998 RMK A01 T03710118  RH  022%=      5-min Rain = 0
KBR1 162014Z 23016KT 37/12 A2998 RMK A01 T03660118  RH  022%=      5-min Rain = 0
KBR1 162015Z 22022G28KT 37/12 A2998 RMK A01 T03710120  RH  022%=      5-min Rain = 0
KBR1 162016Z 22023KT 38/12 A2998 RMK A01 T03780120  RH  021%=      5-min Rain = 0
KBR1 162017Z 21021G26KT 38/12 A2998 RMK A01 T03790120  RH  021%=      5-min Rain = 0
KBR1 162018Z 20017KT 38/12 A2998 RMK A01 T03800122  RH  021%=      5-min Rain = 0
KBR1 162019Z 20017KT 39/12 A2998 RMK A01 T03850121  RH  021%=      5-min Rain = 0
KBR1 162020Z 20016KT 38/12 A2998 RMK A01 T03820121  RH  021%=      5-min Rain = 0
KBR1 162021Z 22020KT 39/12 A2998 RMK A01 T03860119  RH  020%=      5-min Rain = 0
KBR1 162022Z 23021KT 38/12 A2998 RMK A01 T03820118  RH  021%=      5-min Rain = 0
KBR1 162023Z 23021KT 38/12 A2998 RMK A01 T03790118  RH  021%=      5-min Rain = 0
KBR1 162024Z 23017KT 37/12 A2998 RMK A01 T03730115  RH  021%=      5-min Rain = 0
KBR1 162025Z 21019G24KT 37/12 A2998 RMK A01 T03660115  RH  022%=      5-min Rain = 0
KBR1 162026Z 19023G28KT 37/12 A2998 RMK A01 T03680115  RH  022%=      5-min Rain = 0
KBR1 162027Z 19023KT 37/11 A2998 RMK A01 T03720114  RH  021%=      5-min Rain = 0
KBR1 162028Z 19017KT 37/11 A2998 RMK A01 T03730114  RH  021%=      5-min Rain = 0
KBR1 162029Z 23015KT 37/11 A2998 RMK A01 T03720113  RH  021%=      5-min Rain = 0
KBR1 162030Z 22016KT 37/11 A2998 RMK A01 T03740114  RH  021%=      5-min Rain = 0
KBR1 162031Z 20016KT 38/12 A2998 RMK A01 T03780115  RH  021%=      5-min Rain = 0
KBR1 162032Z 20014KT 38/12 A2998 RMK A01 T03790116  RH  021%=      5-min Rain = 0
KBR1 162033Z 20018KT 38/12 A2998 RMK A01 T03800115  RH  020%=      5-min Rain = 0
KBR1 162034Z 22020KT 38/12 A2998 RMK A01 T03830116  RH  020%=      5-min Rain = 0
KBR1 162035Z 22016KT 39/11 A2998 RMK A01 T03850114  RH  020%=      5-min Rain = 0
KBR1 162036Z 22015KT 39/12 A2998 RMK A01 T03860116  RH  020%=      5-min Rain = 0
KBR1 162037Z 22016KT 39/11 A2998 RMK A01 T03860113  RH  020%=      5-min Rain = 0
KBR1 162038Z 22013KT 38/11 A2998 RMK A01 T03800110  RH  020%=      5-min Rain = 0
KBR1 162039Z 20015KT 38/11 A2998 RMK A01 T03770112  RH  020%=      5-min Rain = 0
KBR1 162040Z 19016KT 38/11 A2997 RMK A01 T03770112  RH  020%=      5-min Rain = 0
KBR1 162041Z 20017KT 38/11 A2997 RMK A01 T03780114  RH  021%=      5-min Rain = 0
KBR1 162042Z 19015KT 38/11 A2997 RMK A01 T03800114  RH  020%=      5-min Rain = 0
KBR1 162043Z 19015KT 38/11 A2997 RMK A01 T03800113  RH  020%=      5-min Rain = 0
KBR1 162044Z 19018KT 38/11 A2997 RMK A01 T03820114  RH  020%=      5-min Rain = 0
KBR1 162045Z 19014KT 38/11 A2997 RMK A01 T03820109  RH  019%=      5-min Rain = 0
KBR1 162046Z 20011KT 38/11 A2997 RMK A01 T03770110  RH  020%=      5-min Rain = 0
KBR1 162047Z 20014KT 38/11 A2997 RMK A01 T03760110  RH  020%=      5-min Rain = 0
KBR1 162048Z 20018KT 38/11 A2997 RMK A01 T03790110  RH  020%=      5-min Rain = 0
KBR1 162049Z 20015KT 38/11 A2997 RMK A01 T03800110  RH  020%=      5-min Rain = 0
KBR1 162050Z 18016KT 38/11 A2997 RMK A01 T03830111  RH  020%=      5-min Rain = 0
KBR1 162051Z 17016KT 39/11 A2997 RMK A01 T03850112  RH  019%=      5-min Rain = 0
KBR1 162052Z 18017KT 38/11 A2997 RMK A01 T03800109  RH  020%=      5-min Rain = 0
KBR1 162053Z 17016KT 38/11 A2997 RMK A01 T03780108  RH  020%=      5-min Rain = 0
KBR1 162054Z 18016KT 38/11 A2997 RMK A01 T03780107  RH  020%=      5-min Rain = 0
KBR1 162055Z 20015G20KT 38/11 A2997 RMK A01 T03810110  RH  020%=      5-min Rain = 0
KBR1 162056Z 20011KT 38/11 A2997 RMK A01 T03800107  RH  019%=      5-min Rain = 0
KBR1 162057Z 19015KT 38/11 A2997 RMK A01 T03770110  RH  020%=      5-min Rain = 0
KBR1 162058Z 19019KT 38/11 A2997 RMK A01 T03820107  RH  019%=      5-min Rain = 0
KBR1 162059Z 19013KT 38/11 A2997 RMK A01 T03810108  RH  019%=      5-min Rain = 0
KBR1 162100Z 19012KT 38/11 A2997 RMK A01 T03840110  RH  019%=      5-min Rain = 0
KBR1 162101Z 20017G22KT 38/11 A2997 RMK A01 T03830105  RH  019%=      5-min Rain = 0
KBR1 162102Z 20018KT 38/11 A2997 RMK A01 T03790108  RH  020%=      5-min Rain = 0
KBR1 162103Z 21018KT 38/11 A2997 RMK A01 T03800108  RH  020%=      5-min Rain = 0
KBR1 162104Z 20019KT 38/11 A2997 RMK A01 T03800106  RH  019%=      5-min Rain = 0
KBR1 162105Z 18016KT 38/11 A2997 RMK A01 T03770107  RH  020%=      5-min Rain = 0
KBR1 162106Z 18017KT 38/11 A2997 RMK A01 T03770107  RH  020%=      5-min Rain = 0
KBR1 162107Z 19013KT 38/11 A2997 RMK A01 T03780108  RH  020%=      5-min Rain = 0
KBR1 162108Z 18017KT 38/11 A2996 RMK A01 T03760107  RH  020%=      5-min Rain = 0
KBR1 162109Z 17013KT 38/11 A2996 RMK A01 T03760108  RH  020%=      5-min Rain = 0
KBR1 162110Z 18013KT 38/11 A2996 RMK A01 T03790110  RH  020%=      5-min Rain = 0
KBR1 162111Z 19014KT 38/11 A2996 RMK A01 T03810108  RH  019%=      5-min Rain = 0
KBR1 162112Z 21016KT 38/11 A2997 RMK A01 T03790107  RH  019%=      5-min Rain = 0
KBR1 162113Z 21016KT 38/11 A2996 RMK A01 T03780107  RH  020%=      5-min Rain = 0
KBR1 162114Z 18014KT 38/11 A2996 RMK A01 T03790107  RH  019%=      5-min Rain = 0
KBR1 162115Z 18012KT 38/11 A2996 RMK A01 T03790106  RH  019%=      5-min Rain = 0
KBR1 162116Z 18015KT 38/11 A2996 RMK A01 T03770107  RH  020%=      5-min Rain = 0
KBR1 162117Z 18013KT 38/11 A2996 RMK A01 T03800108  RH  020%=      5-min Rain = 0
KBR1 162118Z 17015G20KT 38/11 A2996 RMK A01 T03810110  RH  020%=      5-min Rain = 0
KBR1 162119Z 17020KT 39/11 A2996 RMK A01 T03850108  RH  019%=      5-min Rain = 0
KBR1 162120Z 18017KT 38/11 A2996 RMK A01 T03800106  RH  019%=      5-min Rain = 0
KBR1 162121Z 16019G24KT 38/11 A2996 RMK A01 T03800108  RH  020%=      5-min Rain = 0
KBR1 162122Z 17020KT 38/11 A2996 RMK A01 T03810108  RH  019%=      5-min Rain = 0
KBR1 162123Z 17019G24KT 38/11 A2996 RMK A01 T03810108  RH  019%=      5-min Rain = 0
KBR1 162124Z 18022KT 38/11 A2996 RMK A01 T03810109  RH  020%=      5-min Rain = 0
KBR1 162125Z 18015G20KT 38/11 A2996 RMK A01 T03810109  RH  020%=      5-min Rain = 0
KBR1 162126Z 18010KT 38/11 A2995 RMK A01 T03750107  RH  020%=      5-min Rain = 0
KBR1 162127Z 18009KT 37/11 A2995 RMK A01 T03740109  RH  020%=      5-min Rain = 0
KBR1 162128Z 18013KT 37/11 A2995 RMK A01 T03730107  RH  020%=      5-min Rain = 0
KBR1 162129Z 17021G27KT 37/11 A2995 RMK A01 T03700108  RH  021%=      5-min Rain = 0
KBR1 162130Z 17016G21KT 37/11 A2995 RMK A01 T03710109  RH  021%=      5-min Rain = 0
KBR1 162131Z 19015KT 38/11 A2995 RMK A01 T03770112  RH  020%=      5-min Rain = 0
KBR1 162132Z 21015KT 38/11 A2995 RMK A01 T03810111  RH  020%=      5-min Rain = 0
KBR1 162133Z 19015G22KT 38/11 A2995 RMK A01 T03840112  RH  020%=      5-min Rain = 0
KBR1 162134Z 20018KT 38/11 A2995 RMK A01 T03820111  RH  020%=      5-min Rain = 0
KBR1 162135Z 20017G23KT 38/11 A2995 RMK A01 T03820111  RH  020%=      5-min Rain = 0
KBR1 162136Z 18019KT 38/11 A2995 RMK A01 T03820110  RH  020%=      5-min Rain = 0
KBR1 162137Z 18017KT 38/11 A2995 RMK A01 T03790110  RH  020%=      5-min Rain = 0
KBR1 162138Z 18014KT 38/11 A2995 RMK A01 T03750110  RH  020%=      5-min Rain = 0
KBR1 162139Z 19011KT 38/11 A2995 RMK A01 T03760112  RH  020%=      5-min Rain = 0
KBR1 162140Z 19011KT 38/11 A2995 RMK A01 T03800114  RH  020%=      5-min Rain = 0
KBR1 162141Z 17013KT 38/11 A2995 RMK A01 T03810113  RH  020%=      5-min Rain = 0
KBR1 162142Z 19013KT 38/11 A2995 RMK A01 T03820113  RH  020%=      5-min Rain = 0
KBR1 162143Z 19019G25KT 38/11 A2994 RMK A01 T03820113  RH  020%=      5-min Rain = 0
KBR1 162144Z 18018G23KT 38/11 A2994 RMK A01 T03830113  RH  020%=      5-min Rain = 0
KBR1 162145Z 17019G24KT 38/11 A2994 RMK A01 T03820114  RH  020%=      5-min Rain = 0
KBR1 162146Z 20020G27KT 38/11 A2994 RMK A01 T03810112  RH  020%=      5-min Rain = 0
KBR1 162147Z 20019G25KT 37/11 A2995 RMK A01 T03740109  RH  020%=      5-min Rain = 0
KBR1 162148Z 21017KT 37/11 A2995 RMK A01 T03690109  RH  021%=      5-min Rain = 0
KBR1 162149Z 20016G21KT 37/11 A2995 RMK A01 T03660108  RH  021%=      5-min Rain = 0
KBR1 162150Z 22018KT 37/11 A2994 RMK A01 T03670110  RH  021%=      5-min Rain = 0
KBR1 162151Z 20017KT 38/11 A2995 RMK A01 T03760113  RH  021%=      5-min Rain = 0
KBR1 162152Z 22016KT 38/11 A2995 RMK A01 T03820112  RH  020%=      5-min Rain = 0
KBR1 162153Z 22013G18KT 38/11 A2995 RMK A01 T03830111  RH  020%=      5-min Rain = 0
KBR1 162154Z 20013KT 38/11 A2995 RMK A01 T03810111  RH  020%=      5-min Rain = 0
KBR1 162155Z 20013KT 38/11 A2995 RMK A01 T03800110  RH  020%=      5-min Rain = 0
KBR1 162156Z 18016KT 38/11 A2994 RMK A01 T03820112  RH  020%=      5-min Rain = 0
KBR1 162157Z 17018G23KT 39/11 A2995 RMK A01 T03860113  RH  020%=      5-min Rain = 0
KBR1 162158Z 18017KT 38/11 A2995 RMK A01 T03840111  RH  020%=      5-min Rain = 0
KBR1 162159Z 19016KT 38/11 A2994 RMK A01 T03800111  RH  020%=      5-min Rain = 0
KBR1 162200Z 17013KT 38/11 A2994 RMK A01 T03780111  RH  020%=      5-min Rain = 0
KBR1 162201Z 18012KT 38/11 A2994 RMK A01 T03770111  RH  020%=      5-min Rain = 0
KBR1 162202Z 19015KT 38/11 A2994 RMK A01 T03750111  RH  020%=      5-min Rain = 0
KBR1 162203Z 19016KT 37/11 A2994 RMK A01 T03720109  RH  021%=      5-min Rain = 0
KBR1 162204Z 18016KT 37/11 A2994 RMK A01 T03680109  RH  021%=      5-min Rain = 0
KBR1 162205Z 18017KT 37/11 A2994 RMK A01 T03660108  RH  021%=      5-min Rain = 0
KBR1 162206Z 18015KT 36/11 A2994 RMK A01 T03640109  RH  021%=      5-min Rain = 0
KBR1 162207Z 18013KT 37/11 A2994 RMK A01 T03660110  RH  021%=      5-min Rain = 0
KBR1 162208Z 20014G21KT 37/11 A2994 RMK A01 T03740113  RH  021%=      5-min Rain = 0
KBR1 162209Z 21014KT 38/11 A2994 RMK A01 T03790112  RH  020%=      5-min Rain = 0
KBR1 162210Z 18014KT 38/11 A2994 RMK A01 T03800111  RH  020%=      5-min Rain = 0
KBR1 162211Z 20017KT 39/12 A2994 RMK A01 T03850115  RH  020%=      5-min Rain = 0
KBR1 162212Z 20018KT 39/11 A2994 RMK A01 T03870112  RH  019%=      5-min Rain = 0
KBR1 162213Z 20016KT 38/11 A2994 RMK A01 T03800109  RH  020%=      5-min Rain = 0
KBR1 162214Z 21012KT 38/11 A2994 RMK A01 T03760110  RH  020%=      5-min Rain = 0
KBR1 162215Z 19017G23KT 38/11 A2993 RMK A01 T03760112  RH  020%=      5-min Rain = 0
KBR1 162216Z 19017KT 38/11 A2994 RMK A01 T03810112  RH  020%=      5-min Rain = 0
KBR1 162217Z 19015G21KT 38/11 A2994 RMK A01 T03820111  RH  020%=      5-min Rain = 0
KBR1 162218Z 19022KT 38/11 A2993 RMK A01 T03810112  RH  020%=      5-min Rain = 0
KBR1 162219Z 19018G23KT 38/11 A2994 RMK A01 T03810111  RH  020%=      5-min Rain = 0
KBR1 162220Z 17016KT 38/11 A2994 RMK A01 T03800112  RH  020%=      5-min Rain = 0
KBR1 162221Z 18015KT 38/11 A2993 RMK A01 T03790110  RH  020%=      5-min Rain = 0
KBR1 162222Z 18018KT 38/11 A2993 RMK A01 T03780111  RH  020%=      5-min Rain = 0
KBR1 162223Z 18020KT 38/11 A2993 RMK A01 T03800111  RH  020%=      5-min Rain = 0
KBR1 162224Z 18016KT 38/11 A2994 RMK A01 T03780110  RH  020%=      5-min Rain = 0
KBR1 162225Z 19011KT 38/11 A2993 RMK A01 T03750109  RH  020%=      5-min Rain = 0
KBR1 162226Z 18014G19KT 38/11 A2993 RMK A01 T03750109  RH  020%=      5-min Rain = 0
KBR1 162227Z 19018G23KT 38/11 A2993 RMK A01 T03760111  RH  020%=      5-min Rain = 0
KBR1 162228Z 18016KT 38/11 A2993 RMK A01 T03780111  RH  020%=      5-min Rain = 0
KBR1 162229Z 17018KT 38/11 A2993 RMK A01 T03800112  RH  020%=      5-min Rain = 0
KBR1 162230Z 18017KT 38/11 A2993 RMK A01 T03790109  RH  020%=      5-min Rain = 0
KBR1 162231Z 19018KT 38/11 A2993 RMK A01 T03770109  RH  020%=      5-min Rain = 0
KBR1 162232Z 20016KT 38/11 A2993 RMK A01 T03770109  RH  020%=      5-min Rain = 0
KBR1 162233Z 18016G24KT 38/11 A2993 RMK A01 T03750110  RH  020%=      5-min Rain = 0
KBR1 162234Z 17016KT 38/11 A2993 RMK A01 T03770110  RH  020%=      5-min Rain = 0
KBR1 162235Z 17015KT 38/11 A2993 RMK A01 T03770111  RH  020%=      5-min Rain = 0
KBR1 162236Z 19015KT 38/11 A2993 RMK A01 T03770109  RH  020%=      5-min Rain = 0
KBR1 162237Z 18013KT 38/11 A2993 RMK A01 T03760110  RH  020%=      5-min Rain = 0
KBR1 162238Z 17015G21KT 38/11 A2993 RMK A01 T03810112  RH  020%=      5-min Rain = 0
KBR1 162239Z 18016KT 39/11 A2993 RMK A01 T03850113  RH  020%=      5-min Rain = 0
KBR1 162240Z 17015G20KT 39/11 A2993 RMK A01 T03850110  RH  019%=      5-min Rain = 0
KBR1 162241Z 17014KT 38/11 A2993 RMK A01 T03820109  RH  019%=      5-min Rain = 0
KBR1 162242Z 19012KT 38/11 A2993 RMK A01 T03770107  RH  020%=      5-min Rain = 0
KBR1 162243Z 18013KT 37/11 A2993 RMK A01 T03740108  RH  020%=      5-min Rain = 0
KBR1 162244Z 19009KT 37/11 A2993 RMK A01 T03720109  RH  020%=      5-min Rain = 0
KBR1 162245Z 18013KT 37/11 A2993 RMK A01 T03740109  RH  020%=      5-min Rain = 0
KBR1 162246Z 18014G21KT 38/11 A2993 RMK A01 T03750110  RH  020%=      5-min Rain = 0
KBR1 162247Z 18017G22KT 38/11 A2993 RMK A01 T03780111  RH  020%=      5-min Rain = 0
KBR1 162248Z 19016G21KT 38/11 A2993 RMK A01 T03780109  RH  020%=      5-min Rain = 0
KBR1 162249Z 18015KT 38/11 A2993 RMK A01 T03760109  RH  020%=      5-min Rain = 0
KBR1 162250Z 18020KT 38/11 A2993 RMK A01 T03770111  RH  020%=      5-min Rain = 0
KBR1 162251Z 19020KT 38/11 A2993 RMK A01 T03780110  RH  020%=      5-min Rain = 0
KBR1 162252Z 20016KT 38/11 A2994 RMK A01 T03770110  RH  020%=      5-min Rain = 0
KBR1 162253Z 18015G20KT 38/11 A2994 RMK A01 T03780110  RH  020%=      5-min Rain = 0
KBR1 162254Z 19013KT 38/11 A2994 RMK A01 T03770110  RH  020%=      5-min Rain = 0
KBR1 162255Z 21013KT 38/11 A2994 RMK A01 T03770109  RH  020%=      5-min Rain = 0
KBR1 162256Z 20012KT 38/11 A2994 RMK A01 T03760110  RH  020%=      5-min Rain = 0
KBR1 162257Z 18014KT 38/11 A2994 RMK A01 T03780110  RH  020%=      5-min Rain = 0
KBR1 162258Z 17011KT 38/11 A2994 RMK A01 T03780109  RH  020%=      5-min Rain = 0
KBR1 162259Z 17014KT 38/11 A2994 RMK A01 T03770110  RH  020%=      5-min Rain = 0
KBR1 162300Z 20013KT 38/11 A2993 RMK A01 T03770110  RH  020%=      5-min Rain = 0
KBR1 162301Z 21013KT 38/11 A2993 RMK A01 T03780110  RH  020%=      5-min Rain = 0
KBR1 162302Z 19013KT 38/11 A2993 RMK A01 T03790112  RH  020%=      5-min Rain = 0
KBR1 162303Z 21015KT 38/11 A2993 RMK A01 T03830113  RH  020%=      5-min Rain = 0
KBR1 162304Z 21014KT 38/11 A2993 RMK A01 T03830112  RH  020%=      5-min Rain = 0
KBR1 162305Z 20016G21KT 38/11 A2993 RMK A01 T03830112  RH  020%=      5-min Rain = 0
KBR1 162306Z 20014KT 38/11 A2993 RMK A01 T03830112  RH  020%=      5-min Rain = 0
KBR1 162307Z 20014KT 38/11 A2993 RMK A01 T03840112  RH  020%=      5-min Rain = 0
KBR1 162308Z 18014KT 38/11 A2993 RMK A01 T03810110  RH  020%=      5-min Rain = 0
KBR1 162309Z 19015KT 38/11 A2993 RMK A01 T03780110  RH  020%=      5-min Rain = 0
KBR1 162310Z 19017G23KT 38/11 A2994 RMK A01 T03770111  RH  020%=      5-min Rain = 0
KBR1 162311Z 18015KT 38/11 A2994 RMK A01 T03780111  RH  020%=      5-min Rain = 0
KBR1 162312Z 18014KT 38/11 A2994 RMK A01 T03780111  RH  020%=      5-min Rain = 0
KBR1 162313Z 20018KT 38/11 A2993 RMK A01 T03790112  RH  020%=      5-min Rain = 0
KBR1 162314Z 22017KT 38/11 A2994 RMK A01 T03800111  RH  020%=      5-min Rain = 0
KBR1 162315Z 22016G23KT 38/11 A2993 RMK A01 T03780111  RH  020%=      5-min Rain = 0
KBR1 162316Z 22017KT 38/11 A2993 RMK A01 T03790111  RH  020%=      5-min Rain = 0
KBR1 162317Z 22013KT 38/11 A2994 RMK A01 T03780110  RH  020%=      5-min Rain = 0
KBR1 162318Z 24010KT 38/11 A2994 RMK A01 T03760109  RH  020%=      5-min Rain = 0
KBR1 162319Z 22010KT 37/11 A2994 RMK A01 T03740111  RH  021%=      5-min Rain = 0
KBR1 162320Z 20013KT 38/11 A2994 RMK A01 T03770111  RH  020%=      5-min Rain = 0
KBR1 162321Z 21017KT 38/11 A2993 RMK A01 T03770111  RH  020%=      5-min Rain = 0
KBR1 162322Z 21019KT 38/11 A2993 RMK A01 T03790110  RH  020%=      5-min Rain = 0
KBR1 162323Z 21015KT 38/11 A2994 RMK A01 T03770109  RH  020%=      5-min Rain = 0
KBR1 162324Z 21015KT 38/11 A2994 RMK A01 T03750109  RH  020%=      5-min Rain = 0
KBR1 162325Z 21018KT 38/11 A2994 RMK A01 T03750110  RH  020%=      5-min Rain = 0
KBR1 162326Z 21012KT 38/11 A2994 RMK A01 T03760110  RH  020%=      5-min Rain = 0
KBR1 162327Z 21014G21KT 38/11 A2994 RMK A01 T03770110  RH  020%=      5-min Rain = 0
KBR1 162328Z 20018KT 38/11 A2994 RMK A01 T03770111  RH  020%=      5-min Rain = 0
KBR1 162329Z 20015KT 38/11 A2994 RMK A01 T03760110  RH  020%=      5-min Rain = 0
KBR1 162330Z 20014G19KT 38/11 A2994 RMK A01 T03760110  RH  020%=      5-min Rain = 0
KBR1 162331Z 22017KT 38/11 A2994 RMK A01 T03780113  RH  020%=      5-min Rain = 0
KBR1 162332Z 22015KT 38/11 A2994 RMK A01 T03790110  RH  020%=      5-min Rain = 0
KBR1 162333Z 22013KT 38/11 A2994 RMK A01 T03760110  RH  020%=      5-min Rain = 0
KBR1 162334Z 22013KT 38/11 A2994 RMK A01 T03770111  RH  020%=      5-min Rain = 0
KBR1 162335Z 21013KT 38/11 A2994 RMK A01 T03770109  RH  020%=      5-min Rain = 0
KBR1 162336Z 20009KT 37/11 A2994 RMK A01 T03740108  RH  020%=      5-min Rain = 0
KBR1 162337Z 18009KT 37/11 A2994 RMK A01 T03730109  RH  020%=      5-min Rain = 0
KBR1 162338Z 18012KT 37/11 A2994 RMK A01 T03730109  RH  020%=      5-min Rain = 0
KBR1 162339Z 18011KT 37/11 A2994 RMK A01 T03730110  RH  021%=      5-min Rain = 0
KBR1 162340Z 18014KT 38/11 A2994 RMK A01 T03760111  RH  020%=      5-min Rain = 0
KBR1 162341Z 18016KT 38/11 A2994 RMK A01 T03760110  RH  020%=      5-min Rain = 0
KBR1 162342Z 20015KT 38/11 A2994 RMK A01 T03750110  RH  020%=      5-min Rain = 0
KBR1 162343Z 21014KT 38/11 A2994 RMK A01 T03750110  RH  020%=      5-min Rain = 0
KBR1 162344Z 21014KT 38/11 A2994 RMK A01 T03750111  RH  020%=      5-min Rain = 0
KBR1 162345Z 20015KT 38/11 A2994 RMK A01 T03750111  RH  020%=      5-min Rain = 0
KBR1 162346Z 20013KT 38/11 A2994 RMK A01 T03750110  RH  020%=      5-min Rain = 0
KBR1 162347Z 20011KT 37/11 A2994 RMK A01 T03740111  RH  021%=      5-min Rain = 0
KBR1 162348Z 20010KT 37/11 A2994 RMK A01 T03740111  RH  021%=      5-min Rain = 0
KBR1 162349Z 19012KT 38/11 A2994 RMK A01 T03760112  RH  020%=      5-min Rain = 0
KBR1 162350Z 18017KT 38/11 A2994 RMK A01 T03760110  RH  020%=      5-min Rain = 0
KBR1 162351Z 18014KT 37/11 A2994 RMK A01 T03740110  RH  021%=      5-min Rain = 0
KBR1 162352Z 20015KT 38/11 A2994 RMK A01 T03760112  RH  020%=      5-min Rain = 0
KBR1 162353Z 20014KT 38/11 A2994 RMK A01 T03770111  RH  020%=      5-min Rain = 0
KBR1 162354Z 20017KT 38/11 A2994 RMK A01 T03770110  RH  020%=      5-min Rain = 0
KBR1 162355Z 18013KT 38/11 A2994 RMK A01 T03760110  RH  020%=      5-min Rain = 0
KBR1 162356Z 20012KT 38/11 A2994 RMK A01 T03750109  RH  020%=      5-min Rain = 0
KBR1 162357Z 22014KT 37/11 A2994 RMK A01 T03740111  RH  021%=      5-min Rain = 0
KBR1 162358Z 22014G19KT 38/11 A2994 RMK A01 T03750112  RH  021%=      5-min Rain = 0
KBR1 162359Z 22016KT 38/11 A2994 RMK A01 T03760111  RH  020%=      5-min Rain = 0
KBR1 170000Z 21011KT 38/11 A2994 RMK A01 T03750111  RH  020%=      5-min Rain = 0
KBR1 170001Z 19011KT 38/11 A2994 RMK A01 T03750111  RH  020%=      5-min Rain = 0
KBR1 170002Z 19015KT 38/11 A2994 RMK A01 T03760111  RH  020%=      5-min Rain = 0
KBR1 170003Z 20015KT 38/11 A2994 RMK A01 T03750110  RH  020%=      5-min Rain = 0
KBR1 170004Z 18012KT 38/11 A2994 RMK A01 T03760111  RH  020%=      5-min Rain = 0
KBR1 170005Z 18015KT 38/11 A2994 RMK A01 T03770111  RH  020%=      5-min Rain = 0
KBR1 170006Z 18012KT 38/11 A2994 RMK A01 T03770110  RH  020%=      5-min Rain = 0
KBR1 170007Z 18014KT 38/11 A2994 RMK A01 T03750110  RH  020%=      5-min Rain = 0
KBR1 170008Z 19016KT 37/11 A2994 RMK A01 T03710109  RH  021%=      5-min Rain = 0
KBR1 170009Z 20012G17KT 37/11 A2994 RMK A01 T03660109  RH  021%=      5-min Rain = 0
KBR1 170010Z 19015KT 37/11 A2994 RMK A01 T03650110  RH  022%=      5-min Rain = 0
KBR1 170011Z 19017KT 36/11 A2994 RMK A01 T03640109  RH  021%=      5-min Rain = 0
KBR1 170012Z 19016G21KT 36/11 A2994 RMK A01 T03620108  RH  022%=      5-min Rain = 0
KBR1 170013Z 19018KT 36/11 A2994 RMK A01 T03620108  RH  022%=      5-min Rain = 0
KBR1 170014Z 19014KT 36/11 A2994 RMK A01 T03610107  RH  022%=      5-min Rain = 0
KBR1 170015Z 19012KT 36/11 A2994 RMK A01 T03600108  RH  022%=      5-min Rain = 0
KBR1 170016Z 18012KT 36/11 A2994 RMK A01 T03610108  RH  022%=      5-min Rain = 0
KBR1 170017Z 19012KT 36/11 A2994 RMK A01 T03640109  RH  022%=      5-min Rain = 0
KBR1 170018Z 20014KT 37/11 A2994 RMK A01 T03660109  RH  021%=      5-min Rain = 0
KBR1 170019Z 20017KT 37/11 A2994 RMK A01 T03670107  RH  021%=      5-min Rain = 0
KBR1 170020Z 20015KT 37/11 A2994 RMK A01 T03670106  RH  021%=      5-min Rain = 0
KBR1 170021Z 19012KT 37/11 A2994 RMK A01 T03670108  RH  021%=      5-min Rain = 0
KBR1 170022Z 18015KT 37/11 A2994 RMK A01 T03660108  RH  021%=      5-min Rain = 0
KBR1 170023Z 18015KT 37/11 A2994 RMK A01 T03650108  RH  021%=      5-min Rain = 0
KBR1 170024Z 17016KT 36/11 A2994 RMK A01 T03640107  RH  021%=      5-min Rain = 0
KBR1 170025Z 18019G26KT 36/11 A2994 RMK A01 T03640107  RH  021%=      5-min Rain = 0
KBR1 170026Z 19018KT 36/11 A2994 RMK A01 T03630108  RH  021%=      5-min Rain = 0
KBR1 170027Z 21016G21KT 36/11 A2994 RMK A01 T03630108  RH  021%=      5-min Rain = 0
KBR1 170028Z 20015KT 36/11 A2994 RMK A01 T03630109  RH  021%=      5-min Rain = 0
KBR1 170029Z 19013KT 36/11 A2994 RMK A01 T03630109  RH  022%=      5-min Rain = 0
KBR1 170030Z 19016KT 36/11 A2994 RMK A01 T03620108  RH  022%=      5-min Rain = 0
KBR1 170031Z 19013KT 36/11 A2994 RMK A01 T03610109  RH  022%=      5-min Rain = 0
KBR1 170032Z 19014KT 36/11 A2994 RMK A01 T03610109  RH  022%=      5-min Rain = 0
KBR1 170033Z 20010KT 36/11 A2994 RMK A01 T03610109  RH  022%=      5-min Rain = 0
KBR1 170034Z 20012KT 36/11 A2994 RMK A01 T03600110  RH  022%=      5-min Rain = 0
KBR1 170035Z 20013KT 36/11 A2994 RMK A01 T03600109  RH  022%=      5-min Rain = 0
KBR1 170036Z 20011KT 36/11 A2994 RMK A01 T03590110  RH  022%=      5-min Rain = 0
KBR1 170037Z 21015KT 36/11 A2994 RMK A01 T03590111  RH  022%=      5-min Rain = 0
KBR1 170038Z 20015KT 36/11 A2994 RMK A01 T03590110  RH  022%=      5-min Rain = 0
KBR1 170039Z 19015KT 36/11 A2994 RMK A01 T03580109  RH  022%=      5-min Rain = 0
KBR1 170040Z 19012KT 36/11 A2994 RMK A01 T03570109  RH  022%=      5-min Rain = 0
KBR1 170041Z 20012KT 36/11 A2994 RMK A01 T03570110  RH  022%=      5-min Rain = 0
KBR1 170042Z 20013KT 36/11 A2994 RMK A01 T03560110  RH  022%=      5-min Rain = 0
KBR1 170043Z 19010KT 36/11 A2994 RMK A01 T03570110  RH  022%=      5-min Rain = 0
KBR1 170044Z 20011KT 36/11 A2994 RMK A01 T03560110  RH  023%=      5-min Rain = 0
KBR1 170045Z 19014KT 36/11 A2994 RMK A01 T03550110  RH  023%=      5-min Rain = 0
KBR1 170046Z 19010KT 36/11 A2994 RMK A01 T03550110  RH  023%=      5-min Rain = 0
KBR1 170047Z 19013KT 35/11 A2994 RMK A01 T03540110  RH  023%=      5-min Rain = 0
KBR1 170048Z 19015KT 35/11 A2994 RMK A01 T03540110  RH  023%=      5-min Rain = 0
KBR1 170049Z 19014KT 35/11 A2994 RMK A01 T03540109  RH  023%=      5-min Rain = 0
KBR1 170050Z 19014KT 35/11 A2994 RMK A01 T03530109  RH  023%=      5-min Rain = 0
KBR1 170051Z 19014KT 35/11 A2994 RMK A01 T03530109  RH  023%=      5-min Rain = 0
KBR1 170052Z 19015KT 35/11 A2994 RMK A01 T03530109  RH  023%=      5-min Rain = 0
KBR1 170053Z 19015KT 35/11 A2994 RMK A01 T03520108  RH  023%=      5-min Rain = 0
KBR1 170054Z 20014KT 35/11 A2994 RMK A01 T03520109  RH  023%=      5-min Rain = 0
KBR1 170055Z 19013KT 35/11 A2994 RMK A01 T03520109  RH  023%=      5-min Rain = 0
KBR1 170056Z 19012KT 35/11 A2994 RMK A01 T03510109  RH  023%=      5-min Rain = 0
KBR1 170057Z 19011KT 35/11 A2994 RMK A01 T03500109  RH  023%=      5-min Rain = 0
KBR1 170058Z 19014KT 35/11 A2994 RMK A01 T03490109  RH  023%=      5-min Rain = 0
KBR1 170059Z 19013KT 35/11 A2994 RMK A01 T03490109  RH  023%=      5-min Rain = 0
KBR1 170100Z 19014KT 35/11 A2994 RMK A01 T03490110  RH  023%=      5-min Rain = 0
KBR1 170101Z 19013KT 35/11 A2994 RMK A01 T03490110  RH  023%=      5-min Rain = 0
KBR1 170102Z 19015KT 35/11 A2994 RMK A01 T03490110  RH  023%=      5-min Rain = 0
KBR1 170103Z 18014KT 35/11 A2994 RMK A01 T03490110  RH  023%=      5-min Rain = 0
KBR1 170104Z 18013KT 35/11 A2994 RMK A01 T03490109  RH  023%=      5-min Rain = 0
KBR1 170105Z 19013KT 35/11 A2995 RMK A01 T03490110  RH  023%=      5-min Rain = 0
KBR1 170106Z 18014KT 35/11 A2995 RMK A01 T03490110  RH  023%=      5-min Rain = 0
KBR1 170107Z 19014KT 35/11 A2995 RMK A01 T03490110  RH  023%=      5-min Rain = 0
KBR1 170108Z 19014KT 35/11 A2995 RMK A01 T03480110  RH  024%=      5-min Rain = 0
KBR1 170109Z 19014KT 35/11 A2995 RMK A01 T03480111  RH  024%=      5-min Rain = 0
KBR1 170110Z 19012KT 35/11 A2995 RMK A01 T03480110  RH  024%=      5-min Rain = 0
KBR1 170111Z 19012KT 35/11 A2995 RMK A01 T03470111  RH  024%=      5-min Rain = 0
KBR1 170112Z 19013KT 35/11 A2995 RMK A01 T03470111  RH  024%=      5-min Rain = 0
KBR1 170113Z 19012KT 35/11 A2995 RMK A01 T03470112  RH  024%=      5-min Rain = 0
KBR1 170114Z 19015KT 35/11 A2995 RMK A01 T03460112  RH  024%=      5-min Rain = 0
KBR1 170115Z 19014KT 35/11 A2995 RMK A01 T03460113  RH  024%=      5-min Rain = 0
KBR1 170116Z 19013KT 35/11 A2995 RMK A01 T03460113  RH  024%=      5-min Rain = 0
KBR1 170117Z 19012KT 35/11 A2995 RMK A01 T03460113  RH  024%=      5-min Rain = 0
KBR1 170118Z 19013KT 35/11 A2995 RMK A01 T03450114  RH  025%=      5-min Rain = 0
KBR1 170119Z 19014KT 35/11 A2995 RMK A01 T03450114  RH  025%=      5-min Rain = 0
KBR1 170120Z 19013KT 35/11 A2995 RMK A01 T03450114  RH  025%=      5-min Rain = 0
KBR1 170121Z 19011KT 35/12 A2995 RMK A01 T03450115  RH  025%=      5-min Rain = 0
KBR1 170122Z 19014KT 35/12 A2995 RMK A01 T03450115  RH  025%=      5-min Rain = 0
KBR1 170123Z 20014KT 35/11 A2995 RMK A01 T03450114  RH  025%=      5-min Rain = 0
KBR1 170124Z 19014KT 35/12 A2996 RMK A01 T03450115  RH  025%=      5-min Rain = 0
KBR1 170125Z 19014KT 35/12 A2996 RMK A01 T03450115  RH  025%=      5-min Rain = 0
KBR1 170126Z 20014KT 35/12 A2996 RMK A01 T03450115  RH  025%=      5-min Rain = 0
KBR1 170127Z 20015KT 35/12 A2996 RMK A01 T03450115  RH  025%=      5-min Rain = 0
KBR1 170128Z 20013KT 35/12 A2996 RMK A01 T03450116  RH  025%=      5-min Rain = 0
KBR1 170129Z 20015KT 35/12 A2996 RMK A01 T03450116  RH  025%=      5-min Rain = 0
KBR1 170130Z 20015G20KT 35/12 A2996 RMK A01 T03450116  RH  025%=      5-min Rain = 0
KBR1 170131Z 20015KT 34/12 A2996 RMK A01 T03440116  RH  025%=      5-min Rain = 0
KBR1 170132Z 22014KT 35/12 A2996 RMK A01 T03450116  RH  025%=      5-min Rain = 0
KBR1 170133Z 22013KT 34/12 A2996 RMK A01 T03440116  RH  025%=      5-min Rain = 0
KBR1 170134Z 24012KT 34/12 A2997 RMK A01 T03430115  RH  025%=      5-min Rain = 0
KBR1 170135Z 24012G17KT 34/11 A2997 RMK A01 T03420112  RH  025%=      5-min Rain = 0
KBR1 170136Z 25011KT 34/11 A2997 RMK A01 T03410111  RH  025%=      5-min Rain = 0
KBR1 170137Z 25011KT 34/11 A2997 RMK A01 T03400110  RH  025%=      5-min Rain = 0
KBR1 170138Z 24012KT 34/11 A2997 RMK A01 T03380110  RH  025%=      5-min Rain = 0
KBR1 170139Z 25013KT 34/11 A2997 RMK A01 T03370109  RH  025%=      5-min Rain = 0
KBR1 170140Z 24011KT 34/11 A2997 RMK A01 T03360108  RH  025%=      5-min Rain = 0
KBR1 170141Z 24011KT 34/11 A2997 RMK A01 T03350108  RH  025%=      5-min Rain = 0
KBR1 170142Z 25012KT 33/11 A2997 RMK A01 T03330109  RH  025%=      5-min Rain = 0
KBR1 170143Z 26012KT 33/11 A2997 RMK A01 T03330109  RH  025%=      5-min Rain = 0
KBR1 170144Z 26013KT 33/11 A2997 RMK A01 T03320109  RH  026%=      5-min Rain = 0
KBR1 170145Z 26016KT 33/11 A2997 RMK A01 T03310109  RH  026%=      5-min Rain = 0
KBR1 170146Z 25015KT 33/11 A2997 RMK A01 T03310109  RH  026%=      5-min Rain = 0
KBR1 170147Z 26012KT 33/11 A2997 RMK A01 T03310109  RH  026%=      5-min Rain = 0
KBR1 170148Z 26011KT 33/11 A2997 RMK A01 T03310109  RH  026%=      5-min Rain = 0
KBR1 170149Z 25013KT 33/11 A2997 RMK A01 T03310110  RH  026%=      5-min Rain = 0
KBR1 170150Z 25013KT 33/11 A2997 RMK A01 T03300111  RH  026%=      5-min Rain = 0
KBR1 170151Z 25011KT 33/11 A2997 RMK A01 T03300111  RH  026%=      5-min Rain = 0
KBR1 170152Z 25011KT 33/11 A2997 RMK A01 T03300110  RH  026%=      5-min Rain = 0
KBR1 170153Z 26012KT 33/11 A2997 RMK A01 T03290110  RH  026%=      5-min Rain = 0
KBR1 170154Z 25011KT 33/11 A2997 RMK A01 T03290110  RH  026%=      5-min Rain = 0
KBR1 170155Z 25010KT 33/11 A2998 RMK A01 T03280110  RH  026%=      5-min Rain = 0
KBR1 170156Z 25010KT 33/11 A2998 RMK A01 T03270111  RH  027%=      5-min Rain = 0
KBR1 170157Z 24008KT 33/11 A2998 RMK A01 T03270112  RH  027%=      5-min Rain = 0
KBR1 170158Z 24012KT 33/12 A2998 RMK A01 T03270115  RH  028%=      5-min Rain = 0
KBR1 170159Z 24010KT 33/12 A2998 RMK A01 T03270116  RH  028%=      5-min Rain = 0
KBR1 170200Z 23013KT 33/12 A2998 RMK A01 T03270118  RH  028%=      5-min Rain = 0
KBR1 170201Z 23011KT 33/12 A2998 RMK A01 T03270119  RH  028%=      5-min Rain = 0
KBR1 170202Z 22009KT 33/12 A2998 RMK A01 T03260119  RH  028%=      5-min Rain = 0
KBR1 170203Z 23010KT 33/12 A2998 RMK A01 T03250121  RH  029%=      5-min Rain = 0
KBR1 170204Z 22012G18KT 32/12 A2998 RMK A01 T03240122  RH  029%=      5-min Rain = 0
KBR1 170205Z 21013KT 32/12 A2998 RMK A01 T03240123  RH  029%=      5-min Rain = 0
KBR1 170206Z 21011KT 32/12 A2998 RMK A01 T03240123  RH  029%=      5-min Rain = 0
KBR1 170207Z 21012KT 32/12 A2998 RMK A01 T03230124  RH  030%=      5-min Rain = 0
KBR1 170208Z 21011KT 32/12 A2998 RMK A01 T03220124  RH  030%=      5-min Rain = 0
KBR1 170209Z 20011KT 32/12 A2998 RMK A01 T03220124  RH  030%=      5-min Rain = 0
KBR1 170210Z 21015G21KT 32/12 A2998 RMK A01 T03220123  RH  030%=      5-min Rain = 0
KBR1 170211Z 21019G24KT 32/12 A2998 RMK A01 T03230121  RH  029%=      5-min Rain = 0
KBR1 170212Z 21020G25KT 33/12 A2998 RMK A01 T03260121  RH  029%=      5-min Rain = 0
KBR1 170213Z 20019KT 33/12 A2998 RMK A01 T03270121  RH  029%=      5-min Rain = 0
KBR1 170214Z 20017KT 33/12 A2998 RMK A01 T03270122  RH  029%=      5-min Rain = 0
KBR1 170215Z 21017KT 33/12 A2998 RMK A01 T03260123  RH  029%=      5-min Rain = 0
KBR1 170216Z 21017KT 33/12 A2998 RMK A01 T03260122  RH  029%=      5-min Rain = 0
KBR1 170217Z 21016KT 33/12 A2998 RMK A01 T03260122  RH  029%=      5-min Rain = 0
KBR1 170218Z 21015KT 33/12 A2998 RMK A01 T03270122  RH  029%=      5-min Rain = 0
KBR1 170219Z 21014KT 33/12 A2999 RMK A01 T03270122  RH  029%=      5-min Rain = 0
KBR1 170220Z 20017G22KT 33/12 A2999 RMK A01 T03260122  RH  029%=      5-min Rain = 0
KBR1 170221Z 20017KT 33/12 A2999 RMK A01 T03260123  RH  029%=      5-min Rain = 0
KBR1 170222Z 19015KT 33/12 A2999 RMK A01 T03260124  RH  029%=      5-min Rain = 0
KBR1 170223Z 19015KT 33/12 A2999 RMK A01 T03250124  RH  029%=      5-min Rain = 0
KBR1 170224Z 19017KT 32/12 A2999 RMK A01 T03240124  RH  030%=      5-min Rain = 0
KBR1 170225Z 19018KT 32/12 A2999 RMK A01 T03240124  RH  029%=      5-min Rain = 0
KBR1 170226Z 19016KT 32/12 A2999 RMK A01 T03240124  RH  029%=      5-min Rain = 0
KBR1 170227Z 20014KT 32/12 A2999 RMK A01 T03240124  RH  030%=      5-min Rain = 0
KBR1 170228Z 19015KT 32/12 A30 RMK A01 T03220124  RH  030%=      5-min Rain = 0
KBR1 170229Z 20016KT 32/12 A30 RMK A01 T03210124  RH  030%=      5-min Rain = 0
KBR1 170230Z 19012KT 32/13 A30 RMK A01 T03200125  RH  030%=      5-min Rain = 0
KBR1 170231Z 19015KT 32/13 A30 RMK A01 T03190125  RH  031%=      5-min Rain = 0
KBR1 170232Z 19015KT 32/13 A30 RMK A01 T03180126  RH  031%=      5-min Rain = 0
KBR1 170233Z 18013KT 32/13 A30 RMK A01 T03180127  RH  031%=      5-min Rain = 0
KBR1 170234Z 19011KT 32/13 A30 RMK A01 T03170127  RH  031%=      5-min Rain = 0
KBR1 170235Z 19012KT 32/13 A30 RMK A01 T03150127  RH  032%=      5-min Rain = 0
KBR1 170236Z 18010KT 32/13 A30 RMK A01 T03150127  RH  032%=      5-min Rain = 0
KBR1 170237Z 18012KT 32/13 A30 RMK A01 T03150128  RH  032%=      5-min Rain = 0
KBR1 170238Z 18012KT 31/13 A30 RMK A01 T03140128  RH  032%=      5-min Rain = 0
KBR1 170239Z 17012G17KT 32/13 A30 RMK A01 T03150128  RH  032%=      5-min Rain = 0
KBR1 170240Z 17015G20KT 32/13 A3001 RMK A01 T03150128  RH  032%=      5-min Rain = 0
KBR1 170241Z 17015KT 32/13 A3001 RMK A01 T03150129  RH  032%=      5-min Rain = 0
KBR1 170242Z 18013KT 31/13 A3001 RMK A01 T03130129  RH  032%=      5-min Rain = 0
KBR1 170243Z 17014KT 31/13 A3001 RMK A01 T03120129  RH  033%=      5-min Rain = 0
KBR1 170244Z 17016KT 31/13 A3001 RMK A01 T03110130  RH  033%=      5-min Rain = 0
KBR1 170245Z 17014KT 31/13 A3001 RMK A01 T03100130  RH  033%=      5-min Rain = 0
KBR1 170246Z 17013KT 31/13 A3001 RMK A01 T03090130  RH  034%=      5-min Rain = 0
KBR1 170247Z 17013KT 31/13 A3001 RMK A01 T03080130  RH  034%=      5-min Rain = 0
KBR1 170248Z 16015KT 31/13 A3001 RMK A01 T03070131  RH  034%=      5-min Rain = 0
KBR1 170249Z 17014KT 31/13 A3001 RMK A01 T03070131  RH  034%=      5-min Rain = 0
KBR1 170250Z 16014G21KT 31/13 A3001 RMK A01 T03060132  RH  034%=      5-min Rain = 0
KBR1 170251Z 17017KT 31/13 A3001 RMK A01 T03060133  RH  035%=      5-min Rain = 0
KBR1 170252Z 17016KT 31/13 A3001 RMK A01 T03050133  RH  035%=      5-min Rain = 0
KBR1 170253Z 17014KT 31/13 A3001 RMK A01 T03050134  RH  035%=      5-min Rain = 0
KBR1 170254Z 17012KT 30/13 A3001 RMK A01 T03040134  RH  035%=      5-min Rain = 0
KBR1 170255Z 19008KT 30/14 A3001 RMK A01 T03040135  RH  036%=      5-min Rain = 0
KBR1 170256Z 19007KT 30/13 A3001 RMK A01 T03030134  RH  036%=      5-min Rain = 0
KBR1 170257Z 18008KT 30/14 A3001 RMK A01 T03020135  RH  036%=      5-min Rain = 0
KBR1 170258Z 17012KT 30/14 A3001 RMK A01 T03010135  RH  036%=      5-min Rain = 0
KBR1 170259Z 16014KT 30/14 A3001 RMK A01 T03010137  RH  037%=      5-min Rain = 0
KBR1 170300Z 16013KT 30/14 A3001 RMK A01 T03020139  RH  037%=      5-min Rain = 0
KBR1 170301Z 15012KT 30/14 A3001 RMK A01 T03040139  RH  037%=      5-min Rain = 0
KBR1 170302Z 16014KT 30/14 A3001 RMK A01 T03040138  RH  036%=      5-min Rain = 0
KBR1 170303Z 17016KT 30/14 A3001 RMK A01 T03040139  RH  037%=      5-min Rain = 0
KBR1 170304Z 17017KT 30/14 A3001 RMK A01 T03030140  RH  037%=      5-min Rain = 0
KBR1 170305Z 16017KT 30/14 A3002 RMK A01 T03030141  RH  037%=      5-min Rain = 0
KBR1 170306Z 15012KT 30/14 A3002 RMK A01 T03020141  RH  038%=      5-min Rain = 0
KBR1 170307Z 15012KT 30/14 A3002 RMK A01 T03010142  RH  038%=      5-min Rain = 0
KBR1 170308Z 15011KT 30/14 A3002 RMK A01 T03000142  RH  038%=      5-min Rain = 0
KBR1 170309Z 15011KT 30/14 A3002 RMK A01 T02990142  RH  038%=      5-min Rain = 0
KBR1 170310Z 15011KT 30/14 A3002 RMK A01 T02970142  RH  039%=      5-min Rain = 0
KBR1 170311Z 15013KT 30/14 A3002 RMK A01 T02960142  RH  039%=      5-min Rain = 0
KBR1 170312Z 16015KT 30/14 A3002 RMK A01 T02950142  RH  039%=      5-min Rain = 0
KBR1 170313Z 16014KT 29/14 A3002 RMK A01 T02930141  RH  039%=      5-min Rain = 0
KBR1 170314Z 16013KT 29/14 A3002 RMK A01 T02930142  RH  040%=      5-min Rain = 0
KBR1 170315Z 16014KT 29/14 A3002 RMK A01 T02920142  RH  040%=      5-min Rain = 0
KBR1 170316Z 16013KT 29/14 A3002 RMK A01 T02920142  RH  040%=      5-min Rain = 0
KBR1 170317Z 15012KT 29/14 A3002 RMK A01 T02910142  RH  040%=      5-min Rain = 0
KBR1 170318Z 15014KT 29/14 A3002 RMK A01 T02910142  RH  040%=      5-min Rain = 0
KBR1 170319Z 15013KT 29/14 A3002 RMK A01 T02910142  RH  040%=      5-min Rain = 0
KBR1 170320Z 15014KT 29/14 A3002 RMK A01 T02900142  RH  040%=      5-min Rain = 0
KBR1 170321Z 15012KT 29/14 A3003 RMK A01 T02910143  RH  040%=      5-min Rain = 0
KBR1 170322Z 15012KT 29/14 A3003 RMK A01 T02920143  RH  040%=      5-min Rain = 0
KBR1 170323Z 15014KT 29/14 A3003 RMK A01 T02910143  RH  040%=      5-min Rain = 0
KBR1 170324Z 15012KT 29/14 A3003 RMK A01 T02910143  RH  040%=      5-min Rain = 0
KBR1 170325Z 15013KT 29/14 A3003 RMK A01 T02910144  RH  040%=      5-min Rain = 0
KBR1 170326Z 15013KT 29/14 A3003 RMK A01 T02910144  RH  041%=      5-min Rain = 0
KBR1 170327Z 15014KT 29/14 A3003 RMK A01 T02910144  RH  041%=      5-min Rain = 0
KBR1 170328Z 16013KT 29/14 A3003 RMK A01 T02910144  RH  041%=      5-min Rain = 0
KBR1 170329Z 17014KT 29/14 A3003 RMK A01 T02920142  RH  040%=      5-min Rain = 0
KBR1 170330Z 17014KT 30/14 A3004 RMK A01 T02950143  RH  039%=      5-min Rain = 0
KBR1 170331Z 17013KT 30/14 A3004 RMK A01 T02960142  RH  039%=      5-min Rain = 0
KBR1 170332Z 18014KT 30/14 A3004 RMK A01 T02960142  RH  039%=      5-min Rain = 0
KBR1 170333Z 19015KT 30/14 A3004 RMK A01 T02970141  RH  039%=      5-min Rain = 0
KBR1 170334Z 20019KT 30/14 A3004 RMK A01 T02980138  RH  038%=      5-min Rain = 0
KBR1 170335Z 20019KT 30/14 A3004 RMK A01 T02980137  RH  037%=      5-min Rain = 0
KBR1 170336Z 20019KT 30/14 A3004 RMK A01 T02980136  RH  037%=      5-min Rain = 0
KBR1 170337Z 20021G26KT 30/14 A3004 RMK A01 T02970135  RH  037%=      5-min Rain = 0
KBR1 170338Z 20022KT 30/14 A3004 RMK A01 T02970136  RH  037%=      5-min Rain = 0
KBR1 170339Z 21024KT 30/14 A3005 RMK A01 T02970137  RH  038%=      5-min Rain = 0
KBR1 170340Z 21022G28KT 30/14 A3005 RMK A01 T02950137  RH  038%=      5-min Rain = 0
KBR1 170341Z 21023KT 29/14 A3005 RMK A01 T02930135  RH  038%=      5-min Rain = 0
KBR1 170342Z 21019KT 29/14 A3005 RMK A01 T02910136  RH  039%=      5-min Rain = 0
KBR1 170343Z 20022KT 29/14 A3005 RMK A01 T02880137  RH  040%=      5-min Rain = 0
KBR1 170344Z 20021KT 29/14 A3005 RMK A01 T02860136  RH  040%=      5-min Rain = 0
KBR1 170345Z 21022G27KT 29/13 A3005 RMK A01 T02870132  RH  038%=      5-min Rain = 0
KBR1 170346Z 21020KT 29/13 A3005 RMK A01 T02900134  RH  038%=      5-min Rain = 0
KBR1 170347Z 22021KT 29/14 A3005 RMK A01 T02880136  RH  039%=      5-min Rain = 0
KBR1 170348Z 21021KT 29/14 A3006 RMK A01 T02860136  RH  040%=      5-min Rain = 0
KBR1 170349Z 21020KT 29/14 A3006 RMK A01 T02860136  RH  040%=      5-min Rain = 0
KBR1 170350Z 22019KT 29/13 A3006 RMK A01 T02860130  RH  038%=      5-min Rain = 0
KBR1 170351Z 21018KT 29/13 A3005 RMK A01 T02880127  RH  037%=      5-min Rain = 0
KBR1 170352Z 20020KT 29/13 A3005 RMK A01 T02900130  RH  037%=      5-min Rain = 0
KBR1 170353Z 20019KT 29/14 A3005 RMK A01 T02890138  RH  039%=      5-min Rain = 0
KBR1 170354Z 21019KT 28/15 A3006 RMK A01 T02840149  RH  044%=      5-min Rain = 0
KBR1 170355Z 20017KT 28/15 A3006 RMK A01 T02770151  RH  046%=      5-min Rain = 0
KBR1 170356Z 20016KT 27/15 A3006 RMK A01 T02740151  RH  047%=      5-min Rain = 0
KBR1 170357Z 21016KT 27/15 A3006 RMK A01 T02720149  RH  047%=      5-min Rain = 0
KBR1 170358Z 22014KT 27/15 A3006 RMK A01 T02680154  RH  050%=      5-min Rain = 0
KBR1 170359Z 22014KT 26/16 A3006 RMK A01 T02630156  RH  052%=      5-min Rain = 0
KBR1 170400Z 22013KT 26/16 A3006 RMK A01 T02600158  RH  053%=      5-min Rain = 0
KBR1 170401Z 22011KT 26/16 A3006 RMK A01 T02570160  RH  055%=      5-min Rain = 0
KBR1 170402Z 22011KT 26/16 A3005 RMK A01 T02550160  RH  056%=      5-min Rain = 0
KBR1 170403Z 22011KT 25/16 A3006 RMK A01 T02540162  RH  057%=      5-min Rain = 0
KBR1 170404Z 22011KT 25/16 A3006 RMK A01 T02510164  RH  058%=      5-min Rain = 0
KBR1 170405Z 22012KT 25/16 A3006 RMK A01 T02500161  RH  058%=      5-min Rain = 0
KBR1 170406Z 22010KT 25/16 A3006 RMK A01 T02500161  RH  058%=      5-min Rain = 0
KBR1 170407Z 22010KT 25/17 A3006 RMK A01 T02510165  RH  059%=      5-min Rain = 0
KBR1 170408Z 21009KT 25/17 A3006 RMK A01 T02490167  RH  060%=      5-min Rain = 0
KBR1 170409Z 21009KT 25/17 A3006 RMK A01 T02480168  RH  061%=      5-min Rain = 0
KBR1 170410Z 21009KT 25/17 A3006 RMK A01 T02470168  RH  061%=      5-min Rain = 0
KBR1 170411Z 22010KT 25/17 A3006 RMK A01 T02470168  RH  062%=      5-min Rain = 0
KBR1 170412Z 22010KT 25/17 A3006 RMK A01 T02460170  RH  062%=      5-min Rain = 0
KBR1 170413Z 22012KT 25/16 A3006 RMK A01 T02470164  RH  060%=      5-min Rain = 0
KBR1 170414Z 22012KT 25/16 A3006 RMK A01 T02500164  RH  059%=      5-min Rain = 0
KBR1 170415Z 22011KT 25/17 A3006 RMK A01 T02510165  RH  059%=      5-min Rain = 0
KBR1 170416Z 22011KT 25/17 A3006 RMK A01 T02510166  RH  059%=      5-min Rain = 0
KBR1 170417Z 21010KT 25/17 A3006 RMK A01 T02500168  RH  060%=      5-min Rain = 0
KBR1 170418Z 21010KT 25/17 A3006 RMK A01 T02500167  RH  060%=      5-min Rain = 0
KBR1 170419Z 21009KT 25/17 A3006 RMK A01 T02490165  RH  060%=      5-min Rain = 0
KBR1 170420Z 21010KT 25/17 A3006 RMK A01 T02500165  RH  059%=      5-min Rain = 0
KBR1 170421Z 20011KT 25/16 A3006 RMK A01 T02500164  RH  059%=      5-min Rain = 0
KBR1 170422Z 20011KT 25/16 A3006 RMK A01 T02520161  RH  057%=      5-min Rain = 0
KBR1 170423Z 20011KT 26/16 A3006 RMK A01 T02550160  RH  056%=      5-min Rain = 0
KBR1 170424Z 21011KT 26/16 A3006 RMK A01 T02570160  RH  055%=      5-min Rain = 0
KBR1 170425Z 21012KT 26/16 A3006 RMK A01 T02580161  RH  055%=      5-min Rain = 0
KBR1 170426Z 20014KT 26/16 A3006 RMK A01 T02590160  RH  054%=      5-min Rain = 0
KBR1 170427Z 20013KT 26/16 A3006 RMK A01 T02600162  RH  055%=      5-min Rain = 0
KBR1 170428Z 20016G21KT 26/16 A3006 RMK A01 T02600163  RH  055%=      5-min Rain = 0
KBR1 170429Z 20017KT 26/16 A3006 RMK A01 T02600162  RH  055%=      5-min Rain = 0
KBR1 170430Z 20016KT 26/17 A3006 RMK A01 T02600165  RH  056%=      5-min Rain = 0
KBR1 170431Z 20015KT 26/17 A3006 RMK A01 T02590166  RH  056%=      5-min Rain = 0
KBR1 170432Z 20015KT 26/17 A3006 RMK A01 T02580166  RH  057%=      5-min Rain = 0
KBR1 170433Z 20014KT 26/17 A3006 RMK A01 T02570167  RH  057%=      5-min Rain = 0
KBR1 170434Z 20013KT 26/17 A3006 RMK A01 T02560167  RH  058%=      5-min Rain = 0
KBR1 170435Z 20011KT 26/17 A3007 RMK A01 T02550169  RH  059%=      5-min Rain = 0
KBR1 170436Z 20010KT 25/17 A3007 RMK A01 T02530170  RH  060%=      5-min Rain = 0
KBR1 170437Z 20010KT 25/17 A3007 RMK A01 T02510171  RH  061%=      5-min Rain = 0
KBR1 170438Z 20010KT 25/17 A3007 RMK A01 T02490171  RH  062%=      5-min Rain = 0
KBR1 170439Z 20008KT 25/17 A3007 RMK A01 T02490171  RH  062%=      5-min Rain = 0
KBR1 170440Z 20009KT 25/17 A3007 RMK A01 T02480173  RH  063%=      5-min Rain = 0
KBR1 170441Z 20007KT 25/17 A3007 RMK A01 T02470173  RH  063%=      5-min Rain = 0
KBR1 170442Z 20006KT 25/17 A3007 RMK A01 T02460174  RH  064%=      5-min Rain = 0
KBR1 170443Z 21008KT 25/17 A3007 RMK A01 T02450174  RH  065%=      5-min Rain = 0
KBR1 170444Z 20008KT 24/17 A3007 RMK A01 T02440173  RH  064%=      5-min Rain = 0
KBR1 170445Z 21009KT 24/17 A3007 RMK A01 T02440174  RH  065%=      5-min Rain = 0
KBR1 170446Z 21010KT 24/17 A3006 RMK A01 T02440174  RH  065%=      5-min Rain = 0
KBR1 170447Z 21011KT 24/17 A3006 RMK A01 T02440173  RH  065%=      5-min Rain = 0
KBR1 170448Z 21012KT 24/17 A3006 RMK A01 T02440171  RH  064%=      5-min Rain = 0
KBR1 170449Z 21012KT 25/17 A3006 RMK A01 T02450171  RH  063%=      5-min Rain = 0
KBR1 170450Z 21012KT 25/17 A3006 RMK A01 T02450171  RH  063%=      5-min Rain = 0
KBR1 170451Z 21013KT 25/17 A3006 RMK A01 T02450172  RH  064%=      5-min Rain = 0
KBR1 170452Z 21013KT 25/17 A3006 RMK A01 T02450173  RH  064%=      5-min Rain = 0
KBR1 170453Z 21012KT 24/18 A3006 RMK A01 T02430175  RH  065%=      5-min Rain = 0
KBR1 170454Z 21013KT 24/17 A3006 RMK A01 T02420174  RH  066%=      5-min Rain = 0
KBR1 170455Z 21012KT 24/18 A3006 RMK A01 T02420175  RH  066%=      5-min Rain = 0
KBR1 170456Z 21012KT 24/17 A3005 RMK A01 T02420172  RH  065%=      5-min Rain = 0
KBR1 170457Z 22011KT 24/17 A3005 RMK A01 T02430173  RH  065%=      5-min Rain = 0
KBR1 170458Z 22009KT 24/18 A3005 RMK A01 T02430175  RH  066%=      5-min Rain = 0
KBR1 170459Z 21013KT 24/18 A3005 RMK A01 T02420175  RH  066%=      5-min Rain = 0

Page generated in 0.1092 seconds.